<?xml version="1.0" encoding="UTF-8" standalone="no" ?>
<gpx xmlns="http://www.topografix.com/GPX/1/1" xmlns:xsi="http://www.w3.org/2001/XMLSchema-instance" xsi:schemaLocation="http://www.topografix.com/GPX/1/1 http://www.topografix.com/GPX/1/1/gpx.xsd" version="1.1" creator="VisuGPX - https://www.visugpx.com">
  <metadata>
    <name>13446769-4 jours entre diois et lus</name>
    <desc><![CDATA[Parcours plannifié, non effectué]]></desc>
  </metadata>
  <trk>
    <name><![CDATA[13446769-4 jours entre diois et lus]]></name>
    <extensions>
      <line xmlns="http://www.topografix.com/GPX/gpx_style/0/2">
        <color>0000FF</color>
        <width>4</width>
      </line>
    </extensions>
    <trkseg>
      <trkpt lat="44.67982" lon="5.69547">
        <ele>1019</ele>
        <time>2021-07-25T13:42:02Z</time>
      </trkpt>
      <trkpt lat="44.67958" lon="5.69469">
        <ele>1021</ele>
        <time>2021-07-25T13:42:50Z</time>
      </trkpt>
      <trkpt lat="44.67988" lon="5.69336">
        <ele>1027</ele>
        <time>2021-07-25T13:44:10Z</time>
      </trkpt>
      <trkpt lat="44.67991" lon="5.69251">
        <ele>1036</ele>
        <time>2021-07-25T13:44:58Z</time>
      </trkpt>
      <trkpt lat="44.67882" lon="5.69255">
        <ele>1046</ele>
        <time>2021-07-25T13:46:26Z</time>
      </trkpt>
      <trkpt lat="44.67949" lon="5.69057">
        <ele>1065</ele>
        <time>2021-07-25T13:48:30Z</time>
      </trkpt>
      <trkpt lat="44.68019" lon="5.69006">
        <ele>1066</ele>
        <time>2021-07-25T13:49:34Z</time>
      </trkpt>
      <trkpt lat="44.68019" lon="5.68942">
        <ele>1075</ele>
        <time>2021-07-25T13:50:10Z</time>
      </trkpt>
      <trkpt lat="44.68068" lon="5.6895">
        <ele>1073</ele>
        <time>2021-07-25T13:50:49Z</time>
      </trkpt>
      <trkpt lat="44.68211" lon="5.68933">
        <ele>1088</ele>
        <time>2021-07-25T13:52:44Z</time>
      </trkpt>
      <trkpt lat="44.68373" lon="5.68851">
        <ele>1092</ele>
        <time>2021-07-25T13:55:02Z</time>
      </trkpt>
      <trkpt lat="44.68538" lon="5.6862">
        <ele>1067</ele>
        <time>2021-07-25T13:58:09Z</time>
      </trkpt>
      <trkpt lat="44.68623" lon="5.68457">
        <ele>1059</ele>
        <time>2021-07-25T14:00:04Z</time>
      </trkpt>
      <trkpt lat="44.68672" lon="5.68216">
        <ele>1077</ele>
        <time>2021-07-25T14:02:26Z</time>
      </trkpt>
      <trkpt lat="44.68715" lon="5.67929">
        <ele>1089</ele>
        <time>2021-07-25T14:05:13Z</time>
      </trkpt>
      <trkpt lat="44.68763" lon="5.67723">
        <ele>1083</ele>
        <time>2021-07-25T14:07:17Z</time>
      </trkpt>
      <trkpt lat="44.68773" lon="5.67319">
        <ele>1106</ele>
        <time>2021-07-25T14:11:07Z</time>
      </trkpt>
      <trkpt lat="44.6873" lon="5.67199">
        <ele>1125</ele>
        <time>2021-07-25T14:12:23Z</time>
      </trkpt>
      <trkpt lat="44.6873" lon="5.66903">
        <ele>1124</ele>
        <time>2021-07-25T14:15:12Z</time>
      </trkpt>
      <trkpt lat="44.68608" lon="5.66663">
        <ele>1123</ele>
        <time>2021-07-25T14:18:00Z</time>
      </trkpt>
      <trkpt lat="44.68449" lon="5.665">
        <ele>1121</ele>
        <time>2021-07-25T14:20:37Z</time>
      </trkpt>
      <trkpt lat="44.68446" lon="5.66311">
        <ele>1136</ele>
        <time>2021-07-25T14:22:25Z</time>
      </trkpt>
      <trkpt lat="44.68492" lon="5.66212">
        <ele>1147</ele>
        <time>2021-07-25T14:23:32Z</time>
      </trkpt>
      <trkpt lat="44.68583" lon="5.66075">
        <ele>1165</ele>
        <time>2021-07-25T14:25:19Z</time>
      </trkpt>
      <trkpt lat="44.68632" lon="5.66036">
        <ele>1182</ele>
        <time>2021-07-25T14:26:04Z</time>
      </trkpt>
      <trkpt lat="44.68708" lon="5.65912">
        <ele>1208</ele>
        <time>2021-07-25T14:27:37Z</time>
      </trkpt>
      <trkpt lat="44.68696" lon="5.65809">
        <ele>1235</ele>
        <time>2021-07-25T14:28:37Z</time>
      </trkpt>
      <trkpt lat="44.68779" lon="5.65796">
        <ele>1228</ele>
        <time>2021-07-25T14:29:44Z</time>
      </trkpt>
      <trkpt lat="44.68846" lon="5.65736">
        <ele>1246</ele>
        <time>2021-07-25T14:30:47Z</time>
      </trkpt>
      <trkpt lat="44.68983" lon="5.65603">
        <ele>1285</ele>
        <time>2021-07-25T14:33:00Z</time>
      </trkpt>
      <trkpt lat="44.69261" lon="5.65255">
        <ele>1299</ele>
        <time>2021-07-25T14:37:58Z</time>
      </trkpt>
      <trkpt lat="44.69297" lon="5.65101">
        <ele>1281</ele>
        <time>2021-07-25T14:39:31Z</time>
      </trkpt>
      <trkpt lat="44.69322" lon="5.65088">
        <ele>1276</ele>
        <time>2021-07-25T14:39:52Z</time>
      </trkpt>
      <trkpt lat="44.69325" lon="5.65023">
        <ele>1265</ele>
        <time>2021-07-25T14:40:29Z</time>
      </trkpt>
      <trkpt lat="44.69285" lon="5.64929">
        <ele>1266</ele>
        <time>2021-07-25T14:41:31Z</time>
      </trkpt>
      <trkpt lat="44.69361" lon="5.64787">
        <ele>1233</ele>
        <time>2021-07-25T14:43:13Z</time>
      </trkpt>
      <trkpt lat="44.69514" lon="5.64672">
        <ele>1199</ele>
        <time>2021-07-25T14:45:32Z</time>
      </trkpt>
      <trkpt lat="44.69587" lon="5.64513">
        <ele>1172</ele>
        <time>2021-07-25T14:47:19Z</time>
      </trkpt>
      <trkpt lat="44.6959" lon="5.64298">
        <ele>1149</ele>
        <time>2021-07-25T14:49:22Z</time>
      </trkpt>
      <trkpt lat="44.69615" lon="5.64212">
        <ele>1144</ele>
        <time>2021-07-25T14:50:15Z</time>
      </trkpt>
      <trkpt lat="44.69615" lon="5.63998">
        <ele>1131</ele>
        <time>2021-07-25T14:52:16Z</time>
      </trkpt>
      <trkpt lat="44.69633" lon="5.63805">
        <ele>1126</ele>
        <time>2021-07-25T14:54:07Z</time>
      </trkpt>
      <trkpt lat="44.69639" lon="5.63551">
        <ele>1128</ele>
        <time>2021-07-25T14:56:32Z</time>
      </trkpt>
      <trkpt lat="44.69688" lon="5.63547">
        <ele>1141</ele>
        <time>2021-07-25T14:57:11Z</time>
      </trkpt>
      <trkpt lat="44.6974" lon="5.63539">
        <ele>1156</ele>
        <time>2021-07-25T14:57:53Z</time>
      </trkpt>
      <trkpt lat="44.69764" lon="5.63324">
        <ele>1159</ele>
        <time>2021-07-25T14:59:57Z</time>
      </trkpt>
      <trkpt lat="44.69822" lon="5.6332">
        <ele>1181</ele>
        <time>2021-07-25T15:00:43Z</time>
      </trkpt>
      <trkpt lat="44.69889" lon="5.63217">
        <ele>1203</ele>
        <time>2021-07-25T15:02:03Z</time>
      </trkpt>
      <trkpt lat="44.69923" lon="5.63062">
        <ele>1210</ele>
        <time>2021-07-25T15:03:35Z</time>
      </trkpt>
      <trkpt lat="44.69993" lon="5.62826">
        <ele>1226</ele>
        <time>2021-07-25T15:06:01Z</time>
      </trkpt>
      <trkpt lat="44.70228" lon="5.62839">
        <ele>1270</ele>
        <time>2021-07-25T15:09:09Z</time>
      </trkpt>
      <trkpt lat="44.70371" lon="5.62796">
        <ele>1303</ele>
        <time>2021-07-25T15:11:06Z</time>
      </trkpt>
      <trkpt lat="44.70444" lon="5.62685">
        <ele>1304</ele>
        <time>2021-07-25T15:12:32Z</time>
      </trkpt>
      <trkpt lat="44.70594" lon="5.62659">
        <ele>1327</ele>
        <time>2021-07-25T15:14:33Z</time>
      </trkpt>
      <trkpt lat="44.70688" lon="5.6259">
        <ele>1320</ele>
        <time>2021-07-25T15:15:58Z</time>
      </trkpt>
      <trkpt lat="44.70819" lon="5.62534">
        <ele>1321</ele>
        <time>2021-07-25T15:17:48Z</time>
      </trkpt>
      <trkpt lat="44.70893" lon="5.62612">
        <ele>1317</ele>
        <time>2021-07-25T15:19:02Z</time>
      </trkpt>
      <trkpt lat="44.7089" lon="5.62766">
        <ele>1339</ele>
        <time>2021-07-25T15:20:29Z</time>
      </trkpt>
      <trkpt lat="44.70975" lon="5.63071">
        <ele>1313</ele>
        <time>2021-07-25T15:23:36Z</time>
      </trkpt>
      <trkpt lat="44.71216" lon="5.63161">
        <ele>1308</ele>
        <time>2021-07-25T15:26:55Z</time>
      </trkpt>
      <trkpt lat="44.71292" lon="5.63152">
        <ele>1303</ele>
        <time>2021-07-25T15:27:56Z</time>
      </trkpt>
      <trkpt lat="44.71399" lon="5.63152">
        <ele>1299</ele>
        <time>2021-07-25T15:29:22Z</time>
      </trkpt>
      <trkpt lat="44.7149" lon="5.63238">
        <ele>1321</ele>
        <time>2021-07-25T15:30:50Z</time>
      </trkpt>
      <trkpt lat="44.71524" lon="5.63212">
        <ele>1325</ele>
        <time>2021-07-25T15:31:21Z</time>
      </trkpt>
      <trkpt lat="44.715" lon="5.63079">
        <ele>1317</ele>
        <time>2021-07-25T15:32:39Z</time>
      </trkpt>
      <trkpt lat="44.71439" lon="5.62796">
        <ele>1329</ele>
        <time>2021-07-25T15:35:27Z</time>
      </trkpt>
      <trkpt lat="44.71423" lon="5.62573">
        <ele>1326</ele>
        <time>2021-07-25T15:37:35Z</time>
      </trkpt>
      <trkpt lat="44.71414" lon="5.62157">
        <ele>1334</ele>
        <time>2021-07-25T15:41:32Z</time>
      </trkpt>
      <trkpt lat="44.71381" lon="5.61972">
        <ele>1314</ele>
        <time>2021-07-25T15:43:20Z</time>
      </trkpt>
      <trkpt lat="44.71435" lon="5.61865">
        <ele>1305</ele>
        <time>2021-07-25T15:44:35Z</time>
      </trkpt>
      <trkpt lat="44.71509" lon="5.61882">
        <ele>1316</ele>
        <time>2021-07-25T15:45:35Z</time>
      </trkpt>
      <trkpt lat="44.71551" lon="5.61861">
        <ele>1308</ele>
        <time>2021-07-25T15:46:10Z</time>
      </trkpt>
      <trkpt lat="44.71631" lon="5.61865">
        <ele>1307</ele>
        <time>2021-07-25T15:47:15Z</time>
      </trkpt>
      <trkpt lat="44.7174" lon="5.61848">
        <ele>1279</ele>
        <time>2021-07-25T15:48:42Z</time>
      </trkpt>
      <trkpt lat="44.71795" lon="5.61899">
        <ele>1265</ele>
        <time>2021-07-25T15:49:35Z</time>
      </trkpt>
      <trkpt lat="44.71884" lon="5.62019">
        <ele>1244</ele>
        <time>2021-07-25T15:51:14Z</time>
      </trkpt>
      <trkpt lat="44.71893" lon="5.62109">
        <ele>1244</ele>
        <time>2021-07-25T15:52:06Z</time>
      </trkpt>
      <trkpt lat="44.71951" lon="5.6214">
        <ele>1232</ele>
        <time>2021-07-25T15:52:55Z</time>
      </trkpt>
      <trkpt lat="44.71997" lon="5.6214">
        <ele>1222</ele>
        <time>2021-07-25T15:53:32Z</time>
      </trkpt>
      <trkpt lat="44.72088" lon="5.62109">
        <ele>1213</ele>
        <time>2021-07-25T15:54:47Z</time>
      </trkpt>
      <trkpt lat="44.72146" lon="5.62097">
        <ele>1198</ele>
        <time>2021-07-25T15:55:34Z</time>
      </trkpt>
      <trkpt lat="44.72247" lon="5.62191">
        <ele>1192</ele>
        <time>2021-07-25T15:57:11Z</time>
      </trkpt>
      <trkpt lat="44.72247" lon="5.62079">
        <ele>1171</ele>
        <time>2021-07-25T15:58:15Z</time>
      </trkpt>
      <trkpt lat="44.72314" lon="5.62045">
        <ele>1178</ele>
        <time>2021-07-25T15:59:12Z</time>
      </trkpt>
      <trkpt lat="44.72353" lon="5.62101">
        <ele>1183</ele>
        <time>2021-07-25T15:59:56Z</time>
      </trkpt>
      <trkpt lat="44.72433" lon="5.62114">
        <ele>1200</ele>
        <time>2021-07-25T16:01:01Z</time>
      </trkpt>
      <trkpt lat="44.72655" lon="5.62135">
        <ele>1231</ele>
        <time>2021-07-25T16:03:59Z</time>
      </trkpt>
      <trkpt lat="44.72674" lon="5.62114">
        <ele>1236</ele>
        <time>2021-07-25T16:04:18Z</time>
      </trkpt>
      <trkpt lat="44.7278" lon="5.6217">
        <ele>1244</ele>
        <time>2021-07-25T16:05:49Z</time>
      </trkpt>
      <trkpt lat="44.72808" lon="5.62101">
        <ele>1260</ele>
        <time>2021-07-25T16:06:34Z</time>
      </trkpt>
      <trkpt lat="44.72768" lon="5.62088">
        <ele>1257</ele>
        <time>2021-07-25T16:07:07Z</time>
      </trkpt>
      <trkpt lat="44.72759" lon="5.61976">
        <ele>1282</ele>
        <time>2021-07-25T16:08:11Z</time>
      </trkpt>
      <trkpt lat="44.72893" lon="5.61856">
        <ele>1324</ele>
        <time>2021-07-25T16:10:18Z</time>
      </trkpt>
      <trkpt lat="44.72985" lon="5.61831">
        <ele>1338</ele>
        <time>2021-07-25T16:11:33Z</time>
      </trkpt>
      <trkpt lat="44.73058" lon="5.61934">
        <ele>1343</ele>
        <time>2021-07-25T16:12:56Z</time>
      </trkpt>
      <trkpt lat="44.73061" lon="5.62015">
        <ele>1344</ele>
        <time>2021-07-25T16:13:42Z</time>
      </trkpt>
      <trkpt lat="44.73082" lon="5.62097">
        <ele>1349</ele>
        <time>2021-07-25T16:14:32Z</time>
      </trkpt>
      <trkpt lat="44.73164" lon="5.62144">
        <ele>1361</ele>
        <time>2021-07-25T16:15:43Z</time>
      </trkpt>
      <trkpt lat="44.73326" lon="5.6232">
        <ele>1386</ele>
        <time>2021-07-25T16:18:26Z</time>
      </trkpt>
      <trkpt lat="44.73414" lon="5.6238">
        <ele>1403</ele>
        <time>2021-07-25T16:19:45Z</time>
      </trkpt>
      <trkpt lat="44.73484" lon="5.62333">
        <ele>1429</ele>
        <time>2021-07-25T16:20:47Z</time>
      </trkpt>
      <trkpt lat="44.73719" lon="5.6253">
        <ele>1490</ele>
        <time>2021-07-25T16:24:26Z</time>
      </trkpt>
      <trkpt lat="44.73747" lon="5.62513">
        <ele>1502</ele>
        <time>2021-07-25T16:24:50Z</time>
      </trkpt>
      <trkpt lat="44.73814" lon="5.62504">
        <ele>1526</ele>
        <time>2021-07-25T16:25:44Z</time>
      </trkpt>
      <trkpt lat="44.74003" lon="5.62517">
        <ele>1572</ele>
        <time>2021-07-25T16:28:16Z</time>
      </trkpt>
      <trkpt lat="44.74134" lon="5.62376">
        <ele>1618</ele>
        <time>2021-07-25T16:30:28Z</time>
      </trkpt>
      <trkpt lat="44.74222" lon="5.62311">
        <ele>1635</ele>
        <time>2021-07-25T16:31:47Z</time>
      </trkpt>
      <trkpt lat="44.74253" lon="5.62324">
        <ele>1629</ele>
        <time>2021-07-25T16:32:13Z</time>
      </trkpt>
      <trkpt lat="44.74335" lon="5.62101">
        <ele>1647</ele>
        <time>2021-07-25T16:34:36Z</time>
      </trkpt>
      <trkpt lat="44.74457" lon="5.61946">
        <ele>1626</ele>
        <time>2021-07-25T16:36:48Z</time>
      </trkpt>
      <trkpt lat="44.74561" lon="5.61959">
        <ele>1599</ele>
        <time>2021-07-25T16:38:11Z</time>
      </trkpt>
      <trkpt lat="44.74652" lon="5.61981">
        <ele>1596</ele>
        <time>2021-07-25T16:39:25Z</time>
      </trkpt>
      <trkpt lat="44.7471" lon="5.61841">
        <ele>1583</ele>
        <time>2021-07-25T16:40:57Z</time>
      </trkpt>
      <trkpt lat="44.74725" lon="5.61659">
        <ele>1560</ele>
        <time>2021-07-25T16:42:41Z</time>
      </trkpt>
      <trkpt lat="44.74785" lon="5.6161">
        <ele>1547</ele>
        <time>2021-07-25T16:43:37Z</time>
      </trkpt>
      <trkpt lat="44.74855" lon="5.61429">
        <ele>1524</ele>
        <time>2021-07-25T16:45:34Z</time>
      </trkpt>
      <trkpt lat="44.749" lon="5.61373">
        <ele>1511</ele>
        <time>2021-07-25T16:46:22Z</time>
      </trkpt>
      <trkpt lat="44.74986" lon="5.61009">
        <ele>1459</ele>
        <time>2021-07-25T16:50:00Z</time>
      </trkpt>
      <trkpt lat="44.74989" lon="5.60783">
        <ele>1426</ele>
        <time>2021-07-25T16:52:09Z</time>
      </trkpt>
      <trkpt lat="44.74893" lon="5.60719">
        <ele>1424</ele>
        <time>2021-07-25T16:53:34Z</time>
      </trkpt>
      <trkpt lat="44.74888" lon="5.60459">
        <ele>1393</ele>
        <time>2021-07-25T16:56:02Z</time>
      </trkpt>
      <trkpt lat="44.7491" lon="5.60419">
        <ele>1384</ele>
        <time>2021-07-25T16:56:31Z</time>
      </trkpt>
      <trkpt lat="44.74911" lon="5.60348">
        <ele>1375</ele>
        <time>2021-07-25T16:57:11Z</time>
      </trkpt>
      <trkpt lat="44.74884" lon="5.60305">
        <ele>1380</ele>
        <time>2021-07-25T16:57:44Z</time>
      </trkpt>
      <trkpt lat="44.74911" lon="5.60127">
        <ele>1351</ele>
        <time>2021-07-25T16:59:27Z</time>
      </trkpt>
      <trkpt lat="44.74949" lon="5.60056">
        <ele>1335</ele>
        <time>2021-07-25T17:00:18Z</time>
      </trkpt>
      <trkpt lat="44.74958" lon="5.59749">
        <ele>1286</ele>
        <time>2021-07-25T17:03:12Z</time>
      </trkpt>
      <trkpt lat="44.74867" lon="5.59451">
        <ele>1242</ele>
        <time>2021-07-25T17:06:17Z</time>
      </trkpt>
      <trkpt lat="44.74934" lon="5.59299">
        <ele>1194</ele>
        <time>2021-07-25T17:07:59Z</time>
      </trkpt>
      <trkpt lat="44.7496" lon="5.59268">
        <ele>1184</ele>
        <time>2021-07-25T17:08:26Z</time>
      </trkpt>
      <trkpt lat="44.74914" lon="5.59176">
        <ele>1165</ele>
        <time>2021-07-25T17:09:30Z</time>
      </trkpt>
      <trkpt lat="44.74911" lon="5.59125">
        <ele>1160</ele>
        <time>2021-07-25T17:09:59Z</time>
      </trkpt>
      <trkpt lat="44.74954" lon="5.59148">
        <ele>1167</ele>
        <time>2021-07-25T17:10:36Z</time>
      </trkpt>
      <trkpt lat="44.74922" lon="5.59071">
        <ele>1160</ele>
        <time>2021-07-25T17:11:26Z</time>
      </trkpt>
      <trkpt lat="44.74832" lon="5.58902">
        <ele>1162</ele>
        <time>2021-07-25T17:13:27Z</time>
      </trkpt>
      <trkpt lat="44.74807" lon="5.58814">
        <ele>1164</ele>
        <time>2021-07-25T17:14:21Z</time>
      </trkpt>
      <trkpt lat="44.74814" lon="5.58657">
        <ele>1165</ele>
        <time>2021-07-25T17:15:50Z</time>
      </trkpt>
      <trkpt lat="44.74721" lon="5.58537">
        <ele>1145</ele>
        <time>2021-07-25T17:17:31Z</time>
      </trkpt>
      <trkpt lat="44.74718" lon="5.58419">
        <ele>1152</ele>
        <time>2021-07-25T17:18:38Z</time>
      </trkpt>
      <trkpt lat="44.74785" lon="5.58367">
        <ele>1171</ele>
        <time>2021-07-25T17:19:39Z</time>
      </trkpt>
      <trkpt lat="44.74788" lon="5.58262">
        <ele>1174</ele>
        <time>2021-07-25T17:20:39Z</time>
      </trkpt>
      <trkpt lat="44.74762" lon="5.58256">
        <ele>1165</ele>
        <time>2021-07-25T17:21:00Z</time>
      </trkpt>
      <trkpt lat="44.74722" lon="5.58088">
        <ele>1179</ele>
        <time>2021-07-25T17:22:41Z</time>
      </trkpt>
      <trkpt lat="44.7459" lon="5.57908">
        <ele>1176</ele>
        <time>2021-07-25T17:25:08Z</time>
      </trkpt>
      <trkpt lat="44.74483" lon="5.57807">
        <ele>1152</ele>
        <time>2021-07-25T17:26:51Z</time>
      </trkpt>
      <trkpt lat="44.74423" lon="5.5773">
        <ele>1147</ele>
        <time>2021-07-25T17:27:56Z</time>
      </trkpt>
      <trkpt lat="44.74532" lon="5.57515">
        <ele>1134</ele>
        <time>2021-07-25T17:30:26Z</time>
      </trkpt>
      <trkpt lat="44.74521" lon="5.57481">
        <ele>1122</ele>
        <time>2021-07-25T17:30:48Z</time>
      </trkpt>
      <trkpt lat="44.74445" lon="5.57539">
        <ele>1122</ele>
        <time>2021-07-25T17:31:57Z</time>
      </trkpt>
      <trkpt lat="44.74364" lon="5.57563">
        <ele>1098</ele>
        <time>2021-07-25T17:33:03Z</time>
      </trkpt>
      <trkpt lat="44.74323" lon="5.57655">
        <ele>1100</ele>
        <time>2021-07-25T17:34:05Z</time>
      </trkpt>
      <trkpt lat="44.74301" lon="5.57801">
        <ele>1065</ele>
        <time>2021-07-25T17:35:30Z</time>
      </trkpt>
      <trkpt lat="44.74242" lon="5.57674">
        <ele>1046</ele>
        <time>2021-07-25T17:36:56Z</time>
      </trkpt>
      <trkpt lat="44.74269" lon="5.57483">
        <ele>1027</ele>
        <time>2021-07-25T17:38:47Z</time>
      </trkpt>
      <trkpt lat="44.74285" lon="5.57316">
        <ele>1012</ele>
        <time>2021-07-25T17:40:23Z</time>
      </trkpt>
      <trkpt lat="44.7417" lon="5.57174">
        <ele>978</ele>
        <time>2021-07-25T17:42:25Z</time>
      </trkpt>
      <trkpt lat="44.74154" lon="5.57078">
        <ele>975</ele>
        <time>2021-07-25T17:43:21Z</time>
      </trkpt>
      <trkpt lat="44.74187" lon="5.56809">
        <ele>972</ele>
        <time>2021-07-25T17:45:57Z</time>
      </trkpt>
      <trkpt lat="44.74155" lon="5.56702">
        <ele>966</ele>
        <time>2021-07-25T17:47:03Z</time>
      </trkpt>
      <trkpt lat="44.74154" lon="5.56599">
        <ele>960</ele>
        <time>2021-07-25T17:48:01Z</time>
      </trkpt>
      <trkpt lat="44.74088" lon="5.5643">
        <ele>934</ele>
        <time>2021-07-25T17:49:51Z</time>
      </trkpt>
      <trkpt lat="44.74154" lon="5.56279">
        <ele>942</ele>
        <time>2021-07-25T17:51:32Z</time>
      </trkpt>
      <trkpt lat="44.74103" lon="5.5626">
        <ele>924</ele>
        <time>2021-07-25T17:52:14Z</time>
      </trkpt>
      <trkpt lat="44.74053" lon="5.56172">
        <ele>917</ele>
        <time>2021-07-25T17:53:18Z</time>
      </trkpt>
      <trkpt lat="44.74004" lon="5.56164">
        <ele>896</ele>
        <time>2021-07-25T17:53:57Z</time>
      </trkpt>
      <trkpt lat="44.73977" lon="5.5611">
        <ele>890</ele>
        <time>2021-07-25T17:54:35Z</time>
      </trkpt>
      <trkpt lat="44.73974" lon="5.55917">
        <ele>882</ele>
        <time>2021-07-25T17:56:25Z</time>
      </trkpt>
      <trkpt lat="44.73919" lon="5.55743">
        <ele>879</ele>
        <time>2021-07-25T17:58:13Z</time>
      </trkpt>
      <trkpt lat="44.73783" lon="5.55576">
        <ele>866</ele>
        <time>2021-07-25T18:00:38Z</time>
      </trkpt>
      <trkpt lat="44.73783" lon="5.55533">
        <ele>867</ele>
        <time>2021-07-25T18:01:02Z</time>
      </trkpt>
      <trkpt lat="44.73701" lon="5.5546">
        <ele>866</ele>
        <time>2021-07-25T18:02:20Z</time>
      </trkpt>
      <trkpt lat="44.73628" lon="5.55417">
        <ele>861</ele>
        <time>2021-07-25T18:03:23Z</time>
      </trkpt>
      <trkpt lat="44.73427" lon="5.55325">
        <ele>844</ele>
        <time>2021-07-25T18:06:12Z</time>
      </trkpt>
      <trkpt lat="44.73285" lon="5.55292">
        <ele>832</ele>
        <time>2021-07-25T18:08:08Z</time>
      </trkpt>
      <trkpt lat="44.73175" lon="5.55252">
        <ele>808</ele>
        <time>2021-07-25T18:09:39Z</time>
      </trkpt>
      <trkpt lat="44.73093" lon="5.55219">
        <ele>805</ele>
        <time>2021-07-25T18:10:47Z</time>
      </trkpt>
      <trkpt lat="44.73177" lon="5.55161">
        <ele>783</ele>
        <time>2021-07-25T18:12:02Z</time>
      </trkpt>
      <trkpt lat="44.73084" lon="5.55054">
        <ele>763</ele>
        <time>2021-07-25T18:13:38Z</time>
      </trkpt>
      <trkpt lat="44.72963" lon="5.55061">
        <ele>762</ele>
        <time>2021-07-25T18:15:15Z</time>
      </trkpt>
      <trkpt lat="44.72863" lon="5.55041">
        <ele>748</ele>
        <time>2021-07-25T18:16:36Z</time>
      </trkpt>
      <trkpt lat="44.7278" lon="5.55009">
        <ele>736</ele>
        <time>2021-07-25T18:17:45Z</time>
      </trkpt>
      <trkpt lat="44.72686" lon="5.54958">
        <ele>729</ele>
        <time>2021-07-25T18:19:05Z</time>
      </trkpt>
      <trkpt lat="44.72628" lon="5.5493">
        <ele>725</ele>
        <time>2021-07-25T18:19:54Z</time>
      </trkpt>
      <trkpt lat="44.72533" lon="5.54777">
        <ele>714</ele>
        <time>2021-07-25T18:21:50Z</time>
      </trkpt>
      <trkpt lat="44.72434" lon="5.54657">
        <ele>710</ele>
        <time>2021-07-25T18:23:35Z</time>
      </trkpt>
      <trkpt lat="44.72404" lon="5.54466">
        <ele>717</ele>
        <time>2021-07-25T18:25:26Z</time>
      </trkpt>
      <trkpt lat="44.72292" lon="5.54207">
        <ele>701</ele>
        <time>2021-07-25T18:28:18Z</time>
      </trkpt>
      <trkpt lat="44.72181" lon="5.5408">
        <ele>686</ele>
        <time>2021-07-25T18:30:13Z</time>
      </trkpt>
      <trkpt lat="44.72132" lon="5.53941">
        <ele>692</ele>
        <time>2021-07-25T18:31:41Z</time>
      </trkpt>
      <trkpt lat="44.72131" lon="5.53769">
        <ele>692</ele>
        <time>2021-07-25T18:33:19Z</time>
      </trkpt>
      <trkpt lat="44.72119" lon="5.53711">
        <ele>694</ele>
        <time>2021-07-25T18:33:53Z</time>
      </trkpt>
      <trkpt lat="44.72001" lon="5.53599">
        <ele>674</ele>
        <time>2021-07-25T18:35:47Z</time>
      </trkpt>
      <trkpt lat="44.71949" lon="5.53511">
        <ele>683</ele>
        <time>2021-07-25T18:36:53Z</time>
      </trkpt>
      <trkpt lat="44.71902" lon="5.53481">
        <ele>675</ele>
        <time>2021-07-25T18:37:34Z</time>
      </trkpt>
      <trkpt lat="44.71808" lon="5.53462">
        <ele>665</ele>
        <time>2021-07-25T18:38:50Z</time>
      </trkpt>
      <trkpt lat="44.71676" lon="5.53269">
        <ele>661</ele>
        <time>2021-07-25T18:41:22Z</time>
      </trkpt>
      <trkpt lat="44.71591" lon="5.53179">
        <ele>652</ele>
        <time>2021-07-25T18:42:47Z</time>
      </trkpt>
      <trkpt lat="44.71547" lon="5.53037">
        <ele>651</ele>
        <time>2021-07-25T18:44:16Z</time>
      </trkpt>
      <trkpt lat="44.71506" lon="5.53031">
        <ele>648</ele>
        <time>2021-07-25T18:44:49Z</time>
      </trkpt>
      <trkpt lat="44.71464" lon="5.53011">
        <ele>650</ele>
        <time>2021-07-25T18:45:24Z</time>
      </trkpt>
      <trkpt lat="44.71361" lon="5.53003">
        <ele>653</ele>
        <time>2021-07-25T18:46:47Z</time>
      </trkpt>
      <trkpt lat="44.71196" lon="5.53117">
        <ele>695</ele>
        <time>2021-07-25T18:49:14Z</time>
      </trkpt>
      <trkpt lat="44.71057" lon="5.53125">
        <ele>688</ele>
        <time>2021-07-25T18:51:05Z</time>
      </trkpt>
      <trkpt lat="44.71013" lon="5.53164">
        <ele>704</ele>
        <time>2021-07-25T18:51:47Z</time>
      </trkpt>
      <trkpt lat="44.7097" lon="5.53069">
        <ele>681</ele>
        <time>2021-07-25T18:52:51Z</time>
      </trkpt>
      <trkpt lat="44.70934" lon="5.53046">
        <ele>682</ele>
        <time>2021-07-25T18:53:23Z</time>
      </trkpt>
      <trkpt lat="44.70809" lon="5.53119">
        <ele>692</ele>
        <time>2021-07-25T18:55:11Z</time>
      </trkpt>
      <trkpt lat="44.70742" lon="5.53134">
        <ele>685</ele>
        <time>2021-07-25T18:56:05Z</time>
      </trkpt>
      <trkpt lat="44.7069" lon="5.53151">
        <ele>689</ele>
        <time>2021-07-25T18:56:48Z</time>
      </trkpt>
      <trkpt lat="44.70675" lon="5.52977">
        <ele>673</ele>
        <time>2021-07-25T18:58:28Z</time>
      </trkpt>
      <trkpt lat="44.70585" lon="5.53119">
        <ele>714</ele>
        <time>2021-07-25T19:00:16Z</time>
      </trkpt>
      <trkpt lat="44.70406" lon="5.53134">
        <ele>747</ele>
        <time>2021-07-25T19:02:40Z</time>
      </trkpt>
      <trkpt lat="44.70292" lon="5.53129">
        <ele>763</ele>
        <time>2021-07-25T19:04:11Z</time>
      </trkpt>
      <trkpt lat="44.70226" lon="5.53099">
        <ele>769</ele>
        <time>2021-07-25T19:05:07Z</time>
      </trkpt>
      <trkpt lat="44.70133" lon="5.53067">
        <ele>795</ele>
        <time>2021-07-25T19:06:23Z</time>
      </trkpt>
      <trkpt lat="44.70089" lon="5.53041">
        <ele>800</ele>
        <time>2021-07-25T19:07:01Z</time>
      </trkpt>
      <trkpt lat="44.70045" lon="5.53035">
        <ele>790</ele>
        <time>2021-07-25T19:07:37Z</time>
      </trkpt>
      <trkpt lat="44.70022" lon="5.53181">
        <ele>824</ele>
        <time>2021-07-25T19:09:02Z</time>
      </trkpt>
      <trkpt lat="44.70022" lon="5.5329">
        <ele>844</ele>
        <time>2021-07-25T19:10:04Z</time>
      </trkpt>
      <trkpt lat="44.70026" lon="5.53338">
        <ele>854</ele>
        <time>2021-07-25T19:10:31Z</time>
      </trkpt>
      <trkpt lat="44.70014" lon="5.5337">
        <ele>857</ele>
        <time>2021-07-25T19:10:52Z</time>
      </trkpt>
      <trkpt lat="44.69981" lon="5.53346">
        <ele>844</ele>
        <time>2021-07-25T19:11:22Z</time>
      </trkpt>
      <trkpt lat="44.69886" lon="5.53353">
        <ele>847</ele>
        <time>2021-07-25T19:12:38Z</time>
      </trkpt>
      <trkpt lat="44.69854" lon="5.53305">
        <ele>841</ele>
        <time>2021-07-25T19:13:15Z</time>
      </trkpt>
      <trkpt lat="44.69848" lon="5.53222">
        <ele>826</ele>
        <time>2021-07-25T19:14:03Z</time>
      </trkpt>
      <trkpt lat="44.69737" lon="5.52885">
        <ele>790</ele>
        <time>2021-07-25T19:17:34Z</time>
      </trkpt>
      <trkpt lat="44.69709" lon="5.52861">
        <ele>784</ele>
        <time>2021-07-25T19:18:01Z</time>
      </trkpt>
      <trkpt lat="44.69651" lon="5.52866">
        <ele>794</ele>
        <time>2021-07-25T19:18:47Z</time>
      </trkpt>
      <trkpt lat="44.69531" lon="5.52702">
        <ele>763</ele>
        <time>2021-07-25T19:21:01Z</time>
      </trkpt>
      <trkpt lat="44.69496" lon="5.52617">
        <ele>746</ele>
        <time>2021-07-25T19:21:57Z</time>
      </trkpt>
      <trkpt lat="44.69372" lon="5.52552">
        <ele>728</ele>
        <time>2021-07-25T19:23:43Z</time>
      </trkpt>
      <trkpt lat="44.69274" lon="5.52539">
        <ele>731</ele>
        <time>2021-07-25T19:25:02Z</time>
      </trkpt>
      <trkpt lat="44.69256" lon="5.52492">
        <ele>711</ele>
        <time>2021-07-25T19:25:32Z</time>
      </trkpt>
      <trkpt lat="44.69198" lon="5.52477">
        <ele>723</ele>
        <time>2021-07-25T19:26:19Z</time>
      </trkpt>
      <trkpt lat="44.6918" lon="5.52336">
        <ele>674</ele>
        <time>2021-07-25T19:27:41Z</time>
      </trkpt>
      <trkpt lat="44.69111" lon="5.52265">
        <ele>668</ele>
        <time>2021-07-25T19:28:49Z</time>
      </trkpt>
      <trkpt lat="44.69009" lon="5.52119">
        <ele>639</ele>
        <time>2021-07-25T19:30:46Z</time>
      </trkpt>
      <trkpt lat="44.68817" lon="5.52018">
        <ele>632</ele>
        <time>2021-07-25T19:33:30Z</time>
      </trkpt>
      <trkpt lat="44.68734" lon="5.519">
        <ele>612</ele>
        <time>2021-07-25T19:35:04Z</time>
      </trkpt>
      <trkpt lat="44.68718" lon="5.51838">
        <ele>601</ele>
        <time>2021-07-25T19:35:42Z</time>
      </trkpt>
      <trkpt lat="44.688" lon="5.51698">
        <ele>605</ele>
        <time>2021-07-25T19:37:25Z</time>
      </trkpt>
      <trkpt lat="44.68794" lon="5.51561">
        <ele>605</ele>
        <time>2021-07-25T19:38:43Z</time>
      </trkpt>
      <trkpt lat="44.68852" lon="5.51449">
        <ele>606</ele>
        <time>2021-07-25T19:40:02Z</time>
      </trkpt>
      <trkpt lat="44.68901" lon="5.51252">
        <ele>601</ele>
        <time>2021-07-25T19:42:01Z</time>
      </trkpt>
      <trkpt lat="44.69062" lon="5.51054">
        <ele>609</ele>
        <time>2021-07-25T19:44:52Z</time>
      </trkpt>
      <trkpt lat="44.691" lon="5.50962">
        <ele>609</ele>
        <time>2021-07-25T19:45:53Z</time>
      </trkpt>
      <trkpt lat="44.69116" lon="5.50846">
        <ele>601</ele>
        <time>2021-07-25T19:47:00Z</time>
      </trkpt>
      <trkpt lat="44.6919" lon="5.50722">
        <ele>616</ele>
        <time>2021-07-25T19:48:32Z</time>
      </trkpt>
      <trkpt lat="44.69229" lon="5.50505">
        <ele>615</ele>
        <time>2021-07-25T19:50:40Z</time>
      </trkpt>
      <trkpt lat="44.69241" lon="5.50381">
        <ele>609</ele>
        <time>2021-07-25T19:51:51Z</time>
      </trkpt>
      <trkpt lat="44.6923" lon="5.50128">
        <ele>603</ele>
        <time>2021-07-25T19:54:15Z</time>
      </trkpt>
      <trkpt lat="44.69207" lon="5.49962">
        <ele>590</ele>
        <time>2021-07-25T19:55:51Z</time>
      </trkpt>
      <trkpt lat="44.69364" lon="5.4961">
        <ele>589</ele>
        <time>2021-07-25T19:59:48Z</time>
      </trkpt>
      <trkpt lat="44.69413" lon="5.49072">
        <ele>571</ele>
        <time>2021-07-25T20:04:57Z</time>
      </trkpt>
      <trkpt lat="44.69438" lon="5.48984">
        <ele>570</ele>
        <time>2021-07-25T20:05:51Z</time>
      </trkpt>
      <trkpt lat="44.69508" lon="5.48877">
        <ele>578</ele>
        <time>2021-07-25T20:07:13Z</time>
      </trkpt>
      <trkpt lat="44.69514" lon="5.48679">
        <ele>581</ele>
        <time>2021-07-25T20:09:06Z</time>
      </trkpt>
      <trkpt lat="44.69512" lon="5.48507">
        <ele>588</ele>
        <time>2021-07-25T20:10:44Z</time>
      </trkpt>
      <trkpt lat="44.69424" lon="5.4852">
        <ele>574</ele>
        <time>2021-07-25T20:11:55Z</time>
      </trkpt>
      <trkpt lat="44.69394" lon="5.48314">
        <ele>572</ele>
        <time>2021-07-25T20:13:55Z</time>
      </trkpt>
      <trkpt lat="44.69353" lon="5.48324">
        <ele>567</ele>
        <time>2021-07-25T20:14:28Z</time>
      </trkpt>
      <trkpt lat="44.69287" lon="5.4823">
        <ele>565</ele>
        <time>2021-07-25T20:15:43Z</time>
      </trkpt>
      <trkpt lat="44.69257" lon="5.48089">
        <ele>567</ele>
        <time>2021-07-25T20:17:07Z</time>
      </trkpt>
      <trkpt lat="44.69275" lon="5.47903">
        <ele>567</ele>
        <time>2021-07-25T20:18:54Z</time>
      </trkpt>
      <trkpt lat="44.69209" lon="5.47722">
        <ele>556</ele>
        <time>2021-07-25T20:20:50Z</time>
      </trkpt>
      <trkpt lat="44.69182" lon="5.47707">
        <ele>554</ele>
        <time>2021-07-25T20:21:13Z</time>
      </trkpt>
      <trkpt lat="44.69113" lon="5.47533">
        <ele>551</ele>
        <time>2021-07-25T20:23:06Z</time>
      </trkpt>
      <trkpt lat="44.69053" lon="5.47566">
        <ele>547</ele>
        <time>2021-07-25T20:23:58Z</time>
      </trkpt>
      <trkpt lat="44.68828" lon="5.47551">
        <ele>543</ele>
        <time>2021-07-25T20:26:58Z</time>
      </trkpt>
      <trkpt lat="44.68562" lon="5.47041">
        <ele>539</ele>
        <time>2021-07-25T20:32:58Z</time>
      </trkpt>
      <trkpt lat="44.68447" lon="5.46375">
        <ele>531</ele>
        <time>2021-07-25T20:39:28Z</time>
      </trkpt>
      <trkpt lat="44.68422" lon="5.4605">
        <ele>528</ele>
        <time>2021-07-25T20:42:34Z</time>
      </trkpt>
      <trkpt lat="44.68373" lon="5.4577">
        <ele>525</ele>
        <time>2021-07-25T20:45:19Z</time>
      </trkpt>
      <trkpt lat="44.68335" lon="5.45726">
        <ele>523</ele>
        <time>2021-07-25T20:45:58Z</time>
      </trkpt>
      <trkpt lat="44.68271" lon="5.45487">
        <ele>518</ele>
        <time>2021-07-25T20:48:23Z</time>
      </trkpt>
      <trkpt lat="44.68241" lon="5.45226">
        <ele>516</ele>
        <time>2021-07-25T20:50:54Z</time>
      </trkpt>
      <trkpt lat="44.68199" lon="5.44979">
        <ele>516</ele>
        <time>2021-07-25T20:53:18Z</time>
      </trkpt>
      <trkpt lat="44.68199" lon="5.44872">
        <ele>516</ele>
        <time>2021-07-25T20:54:19Z</time>
      </trkpt>
      <trkpt lat="44.68228" lon="5.44769">
        <ele>517</ele>
        <time>2021-07-25T20:55:22Z</time>
      </trkpt>
      <trkpt lat="44.68244" lon="5.44647">
        <ele>517</ele>
        <time>2021-07-25T20:56:33Z</time>
      </trkpt>
      <trkpt lat="44.68168" lon="5.4468">
        <ele>518</ele>
        <time>2021-07-25T20:57:37Z</time>
      </trkpt>
      <trkpt lat="44.6813" lon="5.44762">
        <ele>517</ele>
        <time>2021-07-25T20:58:33Z</time>
      </trkpt>
      <trkpt lat="44.68074" lon="5.44907">
        <ele>516</ele>
        <time>2021-07-25T21:00:06Z</time>
      </trkpt>
      <trkpt lat="44.67985" lon="5.45004">
        <ele>523</ele>
        <time>2021-07-25T21:01:37Z</time>
      </trkpt>
      <trkpt lat="44.67981" lon="5.45045">
        <ele>522</ele>
        <time>2021-07-25T21:02:00Z</time>
      </trkpt>
      <trkpt lat="44.67863" lon="5.45088">
        <ele>525</ele>
        <time>2021-07-25T21:03:38Z</time>
      </trkpt>
      <trkpt lat="44.67807" lon="5.45104">
        <ele>528</ele>
        <time>2021-07-25T21:04:24Z</time>
      </trkpt>
      <trkpt lat="44.67691" lon="5.45053">
        <ele>530</ele>
        <time>2021-07-25T21:06:01Z</time>
      </trkpt>
      <trkpt lat="44.67667" lon="5.45045">
        <ele>531</ele>
        <time>2021-07-25T21:06:21Z</time>
      </trkpt>
      <trkpt lat="44.67602" lon="5.45111">
        <ele>532</ele>
        <time>2021-07-25T21:07:25Z</time>
      </trkpt>
      <trkpt lat="44.67529" lon="5.45081">
        <ele>534</ele>
        <time>2021-07-25T21:08:26Z</time>
      </trkpt>
      <trkpt lat="44.67529" lon="5.44915">
        <ele>531</ele>
        <time>2021-07-25T21:10:00Z</time>
      </trkpt>
      <trkpt lat="44.67462" lon="5.44739">
        <ele>528</ele>
        <time>2021-07-25T21:11:54Z</time>
      </trkpt>
      <trkpt lat="44.67304" lon="5.44759">
        <ele>528</ele>
        <time>2021-07-25T21:14:01Z</time>
      </trkpt>
      <trkpt lat="44.67312" lon="5.4432">
        <ele>520</ele>
        <time>2021-07-25T21:18:11Z</time>
      </trkpt>
      <trkpt lat="44.67301" lon="5.43764">
        <ele>525</ele>
        <time>2021-07-25T21:23:28Z</time>
      </trkpt>
      <trkpt lat="44.67341" lon="5.43496">
        <ele>518</ele>
        <time>2021-07-25T21:26:04Z</time>
      </trkpt>
      <trkpt lat="44.67266" lon="5.43274">
        <ele>513</ele>
        <time>2021-07-25T21:28:23Z</time>
      </trkpt>
      <trkpt lat="44.67179" lon="5.43121">
        <ele>516</ele>
        <time>2021-07-25T21:30:15Z</time>
      </trkpt>
      <trkpt lat="44.67023" lon="5.43131">
        <ele>529</ele>
        <time>2021-07-25T21:32:20Z</time>
      </trkpt>
      <trkpt lat="44.6696" lon="5.42999">
        <ele>530</ele>
        <time>2021-07-25T21:33:51Z</time>
      </trkpt>
      <trkpt lat="44.66878" lon="5.42815">
        <ele>519</ele>
        <time>2021-07-25T21:35:54Z</time>
      </trkpt>
      <trkpt lat="44.66778" lon="5.42501">
        <ele>513</ele>
        <time>2021-07-25T21:39:10Z</time>
      </trkpt>
      <trkpt lat="44.66722" lon="5.42358">
        <ele>507</ele>
        <time>2021-07-25T21:40:43Z</time>
      </trkpt>
      <trkpt lat="44.66642" lon="5.42284">
        <ele>502</ele>
        <time>2021-07-25T21:42:00Z</time>
      </trkpt>
      <trkpt lat="44.66598" lon="5.42195">
        <ele>499</ele>
        <time>2021-07-25T21:43:01Z</time>
      </trkpt>
      <trkpt lat="44.66617" lon="5.42088">
        <ele>498</ele>
        <time>2021-07-25T21:44:04Z</time>
      </trkpt>
      <trkpt lat="44.66658" lon="5.42047">
        <ele>500</ele>
        <time>2021-07-25T21:44:45Z</time>
      </trkpt>
      <trkpt lat="44.66715" lon="5.41873">
        <ele>504</ele>
        <time>2021-07-25T21:46:34Z</time>
      </trkpt>
      <trkpt lat="44.6676" lon="5.41784">
        <ele>501</ele>
        <time>2021-07-25T21:47:36Z</time>
      </trkpt>
      <trkpt lat="44.66751" lon="5.4172">
        <ele>499</ele>
        <time>2021-07-25T21:48:13Z</time>
      </trkpt>
      <trkpt lat="44.66914" lon="5.41419">
        <ele>492</ele>
        <time>2021-07-25T21:51:48Z</time>
      </trkpt>
      <trkpt lat="44.66887" lon="5.4136">
        <ele>495</ele>
        <time>2021-07-25T21:52:28Z</time>
      </trkpt>
      <trkpt lat="44.66903" lon="5.41297">
        <ele>492</ele>
        <time>2021-07-25T21:53:06Z</time>
      </trkpt>
      <trkpt lat="44.66892" lon="5.4121">
        <ele>488</ele>
        <time>2021-07-25T21:53:57Z</time>
      </trkpt>
      <trkpt lat="44.66519" lon="5.41319">
        <ele>490</ele>
        <time>2021-07-25T21:59:02Z</time>
      </trkpt>
      <trkpt lat="44.66404" lon="5.41404">
        <ele>492</ele>
        <time>2021-07-25T22:00:46Z</time>
      </trkpt>
      <trkpt lat="44.66388" lon="5.4147">
        <ele>502</ele>
        <time>2021-07-25T22:01:26Z</time>
      </trkpt>
      <trkpt lat="44.66357" lon="5.41445">
        <ele>492</ele>
        <time>2021-07-25T22:01:54Z</time>
      </trkpt>
      <trkpt lat="44.66221" lon="5.41388">
        <ele>486</ele>
        <time>2021-07-25T22:03:48Z</time>
      </trkpt>
      <trkpt lat="44.66132" lon="5.41455">
        <ele>488</ele>
        <time>2021-07-25T22:05:09Z</time>
      </trkpt>
      <trkpt lat="44.66063" lon="5.41452">
        <ele>488</ele>
        <time>2021-07-25T22:06:04Z</time>
      </trkpt>
      <trkpt lat="44.65989" lon="5.41738">
        <ele>494</ele>
        <time>2021-07-25T22:08:57Z</time>
      </trkpt>
      <trkpt lat="44.65996" lon="5.41786">
        <ele>496</ele>
        <time>2021-07-25T22:09:25Z</time>
      </trkpt>
      <trkpt lat="44.65903" lon="5.41889">
        <ele>494</ele>
        <time>2021-07-25T22:11:00Z</time>
      </trkpt>
      <trkpt lat="44.65769" lon="5.41672">
        <ele>489</ele>
        <time>2021-07-25T22:13:44Z</time>
      </trkpt>
      <trkpt lat="44.65451" lon="5.4184">
        <ele>493</ele>
        <time>2021-07-25T22:18:16Z</time>
      </trkpt>
      <trkpt lat="44.65406" lon="5.41587">
        <ele>505</ele>
        <time>2021-07-25T22:20:44Z</time>
      </trkpt>
      <trkpt lat="44.65315" lon="5.4158">
        <ele>519</ele>
        <time>2021-07-25T22:21:57Z</time>
      </trkpt>
      <trkpt lat="44.65181" lon="5.41608">
        <ele>509</ele>
        <time>2021-07-25T22:23:46Z</time>
      </trkpt>
      <trkpt lat="44.6507" lon="5.41572">
        <ele>511</ele>
        <time>2021-07-25T22:25:17Z</time>
      </trkpt>
      <trkpt lat="44.65099" lon="5.41536">
        <ele>514</ele>
        <time>2021-07-25T22:25:48Z</time>
      </trkpt>
      <trkpt lat="44.65152" lon="5.41547">
        <ele>515</ele>
        <time>2021-07-25T22:26:31Z</time>
      </trkpt>
      <trkpt lat="44.65157" lon="5.41488">
        <ele>520</ele>
        <time>2021-07-25T22:27:04Z</time>
      </trkpt>
      <trkpt lat="44.6511" lon="5.4147">
        <ele>518</ele>
        <time>2021-07-25T22:27:43Z</time>
      </trkpt>
      <trkpt lat="44.65201" lon="5.41342">
        <ele>513</ele>
        <time>2021-07-25T22:29:27Z</time>
      </trkpt>
      <trkpt lat="44.65146" lon="5.41171">
        <ele>512</ele>
        <time>2021-07-25T22:31:13Z</time>
      </trkpt>
      <trkpt lat="44.65092" lon="5.4109">
        <ele>513</ele>
        <time>2021-07-25T22:32:17Z</time>
      </trkpt>
      <trkpt lat="44.65021" lon="5.41064">
        <ele>518</ele>
        <time>2021-07-25T22:33:15Z</time>
      </trkpt>
      <trkpt lat="44.64994" lon="5.41018">
        <ele>522</ele>
        <time>2021-07-25T22:33:49Z</time>
      </trkpt>
      <trkpt lat="44.64936" lon="5.41072">
        <ele>531</ele>
        <time>2021-07-25T22:34:45Z</time>
      </trkpt>
      <trkpt lat="44.64876" lon="5.41006">
        <ele>542</ele>
        <time>2021-07-25T22:35:46Z</time>
      </trkpt>
      <trkpt lat="44.64869" lon="5.40858">
        <ele>542</ele>
        <time>2021-07-25T22:37:11Z</time>
      </trkpt>
      <trkpt lat="44.64814" lon="5.40717">
        <ele>554</ele>
        <time>2021-07-25T22:38:42Z</time>
      </trkpt>
      <trkpt lat="44.64785" lon="5.40853">
        <ele>564</ele>
        <time>2021-07-25T22:40:03Z</time>
      </trkpt>
      <trkpt lat="44.64702" lon="5.40927">
        <ele>584</ele>
        <time>2021-07-25T22:41:22Z</time>
      </trkpt>
      <trkpt lat="44.64742" lon="5.40845">
        <ele>577</ele>
        <time>2021-07-25T22:42:18Z</time>
      </trkpt>
      <trkpt lat="44.64734" lon="5.40705">
        <ele>577</ele>
        <time>2021-07-25T22:43:38Z</time>
      </trkpt>
      <trkpt lat="44.64594" lon="5.40786">
        <ele>599</ele>
        <time>2021-07-25T22:45:40Z</time>
      </trkpt>
      <trkpt lat="44.64558" lon="5.40722">
        <ele>597</ele>
        <time>2021-07-25T22:46:26Z</time>
      </trkpt>
      <trkpt lat="44.64569" lon="5.40618">
        <ele>597</ele>
        <time>2021-07-25T22:47:26Z</time>
      </trkpt>
      <trkpt lat="44.64498" lon="5.40712">
        <ele>606</ele>
        <time>2021-07-25T22:48:44Z</time>
      </trkpt>
      <trkpt lat="44.64467" lon="5.40705">
        <ele>608</ele>
        <time>2021-07-25T22:49:09Z</time>
      </trkpt>
      <trkpt lat="44.64466" lon="5.40822">
        <ele>599</ele>
        <time>2021-07-25T22:50:16Z</time>
      </trkpt>
      <trkpt lat="44.643" lon="5.41013">
        <ele>568</ele>
        <time>2021-07-25T22:53:08Z</time>
      </trkpt>
      <trkpt lat="44.64337" lon="5.41161">
        <ele>570</ele>
        <time>2021-07-25T22:54:37Z</time>
      </trkpt>
      <trkpt lat="44.64358" lon="5.41258">
        <ele>571</ele>
        <time>2021-07-25T22:55:35Z</time>
      </trkpt>
      <trkpt lat="44.64338" lon="5.41363">
        <ele>558</ele>
        <time>2021-07-25T22:56:37Z</time>
      </trkpt>
      <trkpt lat="44.64242" lon="5.41623">
        <ele>531</ele>
        <time>2021-07-25T22:59:24Z</time>
      </trkpt>
      <trkpt lat="44.6426" lon="5.41758">
        <ele>524</ele>
        <time>2021-07-25T23:00:42Z</time>
      </trkpt>
      <trkpt lat="44.6444" lon="5.41996">
        <ele>512</ele>
        <time>2021-07-25T23:04:00Z</time>
      </trkpt>
      <trkpt lat="44.64148" lon="5.42195">
        <ele>511</ele>
        <time>2021-07-25T23:08:20Z</time>
      </trkpt>
      <trkpt lat="44.64239" lon="5.42065">
        <ele>512</ele>
        <time>2021-07-25T23:10:03Z</time>
      </trkpt>
      <trkpt lat="44.64197" lon="5.41937">
        <ele>520</ele>
        <time>2021-07-25T23:11:24Z</time>
      </trkpt>
      <trkpt lat="44.64079" lon="5.41858">
        <ele>524</ele>
        <time>2021-07-25T23:13:08Z</time>
      </trkpt>
      <trkpt lat="44.63846" lon="5.4182">
        <ele>537</ele>
        <time>2021-07-25T23:16:16Z</time>
      </trkpt>
      <trkpt lat="44.63747" lon="5.41866">
        <ele>546</ele>
        <time>2021-07-25T23:17:40Z</time>
      </trkpt>
      <trkpt lat="44.63705" lon="5.41866">
        <ele>546</ele>
        <time>2021-07-25T23:18:13Z</time>
      </trkpt>
      <trkpt lat="44.63563" lon="5.41873">
        <ele>538</ele>
        <time>2021-07-25T23:20:07Z</time>
      </trkpt>
      <trkpt lat="44.63485" lon="5.41901">
        <ele>539</ele>
        <time>2021-07-25T23:21:12Z</time>
      </trkpt>
      <trkpt lat="44.63407" lon="5.4195">
        <ele>545</ele>
        <time>2021-07-25T23:22:20Z</time>
      </trkpt>
      <trkpt lat="44.63322" lon="5.4194">
        <ele>555</ele>
        <time>2021-07-25T23:23:28Z</time>
      </trkpt>
      <trkpt lat="44.6328" lon="5.41932">
        <ele>562</ele>
        <time>2021-07-25T23:24:02Z</time>
      </trkpt>
      <trkpt lat="44.63222" lon="5.41878">
        <ele>576</ele>
        <time>2021-07-25T23:24:58Z</time>
      </trkpt>
      <trkpt lat="44.63193" lon="5.41912">
        <ele>582</ele>
        <time>2021-07-25T23:25:28Z</time>
      </trkpt>
      <trkpt lat="44.63138" lon="5.42001">
        <ele>593</ele>
        <time>2021-07-25T23:26:35Z</time>
      </trkpt>
      <trkpt lat="44.63126" lon="5.42146">
        <ele>579</ele>
        <time>2021-07-25T23:27:58Z</time>
      </trkpt>
      <trkpt lat="44.63184" lon="5.42246">
        <ele>559</ele>
        <time>2021-07-25T23:29:12Z</time>
      </trkpt>
      <trkpt lat="44.63195" lon="5.42384">
        <ele>552</ele>
        <time>2021-07-25T23:30:31Z</time>
      </trkpt>
      <trkpt lat="44.63091" lon="5.42363">
        <ele>549</ele>
        <time>2021-07-25T23:31:55Z</time>
      </trkpt>
      <trkpt lat="44.63008" lon="5.42626">
        <ele>540</ele>
        <time>2021-07-25T23:34:39Z</time>
      </trkpt>
      <trkpt lat="44.62989" lon="5.42718">
        <ele>536</ele>
        <time>2021-07-25T23:35:34Z</time>
      </trkpt>
      <trkpt lat="44.62993" lon="5.42881">
        <ele>532</ele>
        <time>2021-07-25T23:37:07Z</time>
      </trkpt>
      <trkpt lat="44.62799" lon="5.42766">
        <ele>540</ele>
        <time>2021-07-25T23:39:55Z</time>
      </trkpt>
      <trkpt lat="44.6275" lon="5.42777">
        <ele>541</ele>
        <time>2021-07-25T23:40:35Z</time>
      </trkpt>
      <trkpt lat="44.62641" lon="5.42861">
        <ele>543</ele>
        <time>2021-07-25T23:42:15Z</time>
      </trkpt>
      <trkpt lat="44.62608" lon="5.42861">
        <ele>544</ele>
        <time>2021-07-25T23:42:41Z</time>
      </trkpt>
      <trkpt lat="44.62604" lon="5.43004">
        <ele>541</ele>
        <time>2021-07-25T23:44:03Z</time>
      </trkpt>
      <trkpt lat="44.62606" lon="5.43101">
        <ele>540</ele>
        <time>2021-07-25T23:44:58Z</time>
      </trkpt>
      <trkpt lat="44.6267" lon="5.43238">
        <ele>534</ele>
        <time>2021-07-25T23:46:31Z</time>
      </trkpt>
      <trkpt lat="44.62439" lon="5.43445">
        <ele>542</ele>
        <time>2021-07-25T23:50:11Z</time>
      </trkpt>
      <trkpt lat="44.62332" lon="5.43667">
        <ele>544</ele>
        <time>2021-07-25T23:52:43Z</time>
      </trkpt>
      <trkpt lat="44.62176" lon="5.44007">
        <ele>542</ele>
        <time>2021-07-25T23:56:34Z</time>
      </trkpt>
      <trkpt lat="44.62141" lon="5.44088">
        <ele>541</ele>
        <time>2021-07-25T23:57:28Z</time>
      </trkpt>
      <trkpt lat="44.61942" lon="5.44249">
        <ele>544</ele>
        <time>2021-07-26T00:00:32Z</time>
      </trkpt>
      <trkpt lat="44.61862" lon="5.44291">
        <ele>544</ele>
        <time>2021-07-26T00:01:40Z</time>
      </trkpt>
      <trkpt lat="44.61851" lon="5.44231">
        <ele>545</ele>
        <time>2021-07-26T00:02:15Z</time>
      </trkpt>
      <trkpt lat="44.61767" lon="5.44118">
        <ele>548</ele>
        <time>2021-07-26T00:03:49Z</time>
      </trkpt>
      <trkpt lat="44.61713" lon="5.43976">
        <ele>551</ele>
        <time>2021-07-26T00:05:20Z</time>
      </trkpt>
      <trkpt lat="44.61618" lon="5.43951">
        <ele>553</ele>
        <time>2021-07-26T00:06:38Z</time>
      </trkpt>
      <trkpt lat="44.61566" lon="5.44018">
        <ele>554</ele>
        <time>2021-07-26T00:07:34Z</time>
      </trkpt>
      <trkpt lat="44.61287" lon="5.44206">
        <ele>560</ele>
        <time>2021-07-26T00:11:42Z</time>
      </trkpt>
      <trkpt lat="44.61335" lon="5.44431">
        <ele>549</ele>
        <time>2021-07-26T00:13:56Z</time>
      </trkpt>
      <trkpt lat="44.61261" lon="5.4447">
        <ele>551</ele>
        <time>2021-07-26T00:14:59Z</time>
      </trkpt>
      <trkpt lat="44.61231" lon="5.44437">
        <ele>558</ele>
        <time>2021-07-26T00:15:30Z</time>
      </trkpt>
      <trkpt lat="44.61084" lon="5.4447">
        <ele>574</ele>
        <time>2021-07-26T00:17:29Z</time>
      </trkpt>
      <trkpt lat="44.61052" lon="5.44528">
        <ele>580</ele>
        <time>2021-07-26T00:18:11Z</time>
      </trkpt>
      <trkpt lat="44.61073" lon="5.44616">
        <ele>561</ele>
        <time>2021-07-26T00:19:04Z</time>
      </trkpt>
      <trkpt lat="44.61021" lon="5.44713">
        <ele>572</ele>
        <time>2021-07-26T00:20:13Z</time>
      </trkpt>
      <trkpt lat="44.61023" lon="5.44856">
        <ele>558</ele>
        <time>2021-07-26T00:21:34Z</time>
      </trkpt>
      <trkpt lat="44.60952" lon="5.44892">
        <ele>570</ele>
        <time>2021-07-26T00:22:35Z</time>
      </trkpt>
      <trkpt lat="44.6092" lon="5.45004">
        <ele>558</ele>
        <time>2021-07-26T00:23:44Z</time>
      </trkpt>
      <trkpt lat="44.60773" lon="5.45083">
        <ele>568</ele>
        <time>2021-07-26T00:25:50Z</time>
      </trkpt>
      <trkpt lat="44.6076" lon="5.45147">
        <ele>563</ele>
        <time>2021-07-26T00:26:27Z</time>
      </trkpt>
      <trkpt lat="44.60576" lon="5.45311">
        <ele>570</ele>
        <time>2021-07-26T00:29:22Z</time>
      </trkpt>
      <trkpt lat="44.60393" lon="5.45463">
        <ele>588</ele>
        <time>2021-07-26T00:32:12Z</time>
      </trkpt>
      <trkpt lat="44.60317" lon="5.45572">
        <ele>588</ele>
        <time>2021-07-26T00:33:39Z</time>
      </trkpt>
      <trkpt lat="44.60228" lon="5.45624">
        <ele>627</ele>
        <time>2021-07-26T00:34:56Z</time>
      </trkpt>
      <trkpt lat="44.60177" lon="5.45747">
        <ele>614</ele>
        <time>2021-07-26T00:36:17Z</time>
      </trkpt>
      <trkpt lat="44.6014" lon="5.45853">
        <ele>602</ele>
        <time>2021-07-26T00:37:25Z</time>
      </trkpt>
      <trkpt lat="44.60162" lon="5.45898">
        <ele>599</ele>
        <time>2021-07-26T00:37:56Z</time>
      </trkpt>
      <trkpt lat="44.6012" lon="5.45958">
        <ele>607</ele>
        <time>2021-07-26T00:38:44Z</time>
      </trkpt>
      <trkpt lat="44.60065" lon="5.45949">
        <ele>601</ele>
        <time>2021-07-26T00:39:28Z</time>
      </trkpt>
      <trkpt lat="44.60006" lon="5.45983">
        <ele>600</ele>
        <time>2021-07-26T00:40:19Z</time>
      </trkpt>
      <trkpt lat="44.60025" lon="5.46048">
        <ele>601</ele>
        <time>2021-07-26T00:40:59Z</time>
      </trkpt>
      <trkpt lat="44.60135" lon="5.46077">
        <ele>626</ele>
        <time>2021-07-26T00:42:29Z</time>
      </trkpt>
      <trkpt lat="44.60137" lon="5.46153">
        <ele>624</ele>
        <time>2021-07-26T00:43:12Z</time>
      </trkpt>
      <trkpt lat="44.60223" lon="5.46212">
        <ele>646</ele>
        <time>2021-07-26T00:44:29Z</time>
      </trkpt>
      <trkpt lat="44.60303" lon="5.4633">
        <ele>649</ele>
        <time>2021-07-26T00:46:02Z</time>
      </trkpt>
      <trkpt lat="44.60259" lon="5.46503">
        <ele>648</ele>
        <time>2021-07-26T00:47:47Z</time>
      </trkpt>
      <trkpt lat="44.60316" lon="5.46714">
        <ele>659</ele>
        <time>2021-07-26T00:49:55Z</time>
      </trkpt>
      <trkpt lat="44.6032" lon="5.46799">
        <ele>654</ele>
        <time>2021-07-26T00:50:44Z</time>
      </trkpt>
      <trkpt lat="44.60362" lon="5.46907">
        <ele>656</ele>
        <time>2021-07-26T00:51:54Z</time>
      </trkpt>
      <trkpt lat="44.60383" lon="5.47082">
        <ele>659</ele>
        <time>2021-07-26T00:53:35Z</time>
      </trkpt>
      <trkpt lat="44.60433" lon="5.47196">
        <ele>665</ele>
        <time>2021-07-26T00:54:51Z</time>
      </trkpt>
      <trkpt lat="44.60391" lon="5.47322">
        <ele>664</ele>
        <time>2021-07-26T00:56:11Z</time>
      </trkpt>
      <trkpt lat="44.60349" lon="5.47414">
        <ele>664</ele>
        <time>2021-07-26T00:57:13Z</time>
      </trkpt>
      <trkpt lat="44.60174" lon="5.47463">
        <ele>683</ele>
        <time>2021-07-26T00:59:36Z</time>
      </trkpt>
      <trkpt lat="44.60016" lon="5.47544">
        <ele>697</ele>
        <time>2021-07-26T01:01:51Z</time>
      </trkpt>
      <trkpt lat="44.59953" lon="5.47611">
        <ele>692</ele>
        <time>2021-07-26T01:02:54Z</time>
      </trkpt>
      <trkpt lat="44.60034" lon="5.47589">
        <ele>702</ele>
        <time>2021-07-26T01:04:00Z</time>
      </trkpt>
      <trkpt lat="44.60045" lon="5.47804">
        <ele>718</ele>
        <time>2021-07-26T01:06:03Z</time>
      </trkpt>
      <trkpt lat="44.60095" lon="5.47925">
        <ele>733</ele>
        <time>2021-07-26T01:07:23Z</time>
      </trkpt>
      <trkpt lat="44.60102" lon="5.48017">
        <ele>734</ele>
        <time>2021-07-26T01:08:15Z</time>
      </trkpt>
      <trkpt lat="44.60132" lon="5.47991">
        <ele>744</ele>
        <time>2021-07-26T01:08:44Z</time>
      </trkpt>
      <trkpt lat="44.60172" lon="5.48058">
        <ele>757</ele>
        <time>2021-07-26T01:09:33Z</time>
      </trkpt>
      <trkpt lat="44.60176" lon="5.48139">
        <ele>759</ele>
        <time>2021-07-26T01:10:20Z</time>
      </trkpt>
      <trkpt lat="44.60219" lon="5.48401">
        <ele>782</ele>
        <time>2021-07-26T01:12:53Z</time>
      </trkpt>
      <trkpt lat="44.60159" lon="5.48562">
        <ele>791</ele>
        <time>2021-07-26T01:14:37Z</time>
      </trkpt>
      <trkpt lat="44.60201" lon="5.48518">
        <ele>792</ele>
        <time>2021-07-26T01:15:18Z</time>
      </trkpt>
      <trkpt lat="44.60191" lon="5.48608">
        <ele>801</ele>
        <time>2021-07-26T01:16:10Z</time>
      </trkpt>
      <trkpt lat="44.60122" lon="5.48675">
        <ele>810</ele>
        <time>2021-07-26T01:17:18Z</time>
      </trkpt>
      <trkpt lat="44.60209" lon="5.48643">
        <ele>807</ele>
        <time>2021-07-26T01:18:30Z</time>
      </trkpt>
      <trkpt lat="44.60173" lon="5.48733">
        <ele>814</ele>
        <time>2021-07-26T01:19:28Z</time>
      </trkpt>
      <trkpt lat="44.60074" lon="5.4882">
        <ele>833</ele>
        <time>2021-07-26T01:21:02Z</time>
      </trkpt>
      <trkpt lat="44.60009" lon="5.48886">
        <ele>846</ele>
        <time>2021-07-26T01:22:06Z</time>
      </trkpt>
      <trkpt lat="44.59923" lon="5.48966">
        <ele>873</ele>
        <time>2021-07-26T01:23:29Z</time>
      </trkpt>
      <trkpt lat="44.5989" lon="5.48975">
        <ele>885</ele>
        <time>2021-07-26T01:23:56Z</time>
      </trkpt>
      <trkpt lat="44.59881" lon="5.49018">
        <ele>888</ele>
        <time>2021-07-26T01:24:21Z</time>
      </trkpt>
      <trkpt lat="44.59939" lon="5.49072">
        <ele>875</ele>
        <time>2021-07-26T01:25:17Z</time>
      </trkpt>
      <trkpt lat="44.59984" lon="5.49191">
        <ele>886</ele>
        <time>2021-07-26T01:26:34Z</time>
      </trkpt>
      <trkpt lat="44.59937" lon="5.49381">
        <ele>923</ele>
        <time>2021-07-26T01:28:28Z</time>
      </trkpt>
      <trkpt lat="44.59834" lon="5.49558">
        <ele>961</ele>
        <time>2021-07-26T01:30:39Z</time>
      </trkpt>
      <trkpt lat="44.59825" lon="5.49716">
        <ele>985</ele>
        <time>2021-07-26T01:32:09Z</time>
      </trkpt>
      <trkpt lat="44.59799" lon="5.49906">
        <ele>1017</ele>
        <time>2021-07-26T01:33:59Z</time>
      </trkpt>
      <trkpt lat="44.59825" lon="5.50041">
        <ele>1032</ele>
        <time>2021-07-26T01:35:19Z</time>
      </trkpt>
      <trkpt lat="44.59826" lon="5.50189">
        <ele>1048</ele>
        <time>2021-07-26T01:36:44Z</time>
      </trkpt>
      <trkpt lat="44.59806" lon="5.50263">
        <ele>1051</ele>
        <time>2021-07-26T01:37:29Z</time>
      </trkpt>
      <trkpt lat="44.59793" lon="5.50487">
        <ele>1048</ele>
        <time>2021-07-26T01:39:37Z</time>
      </trkpt>
      <trkpt lat="44.59804" lon="5.50617">
        <ele>1051</ele>
        <time>2021-07-26T01:40:51Z</time>
      </trkpt>
      <trkpt lat="44.59775" lon="5.50743">
        <ele>1054</ele>
        <time>2021-07-26T01:42:07Z</time>
      </trkpt>
      <trkpt lat="44.59689" lon="5.50813">
        <ele>1021</ele>
        <time>2021-07-26T01:43:27Z</time>
      </trkpt>
      <trkpt lat="44.59633" lon="5.50864">
        <ele>988</ele>
        <time>2021-07-26T01:44:20Z</time>
      </trkpt>
      <trkpt lat="44.59708" lon="5.5096">
        <ele>1010</ele>
        <time>2021-07-26T01:45:41Z</time>
      </trkpt>
      <trkpt lat="44.59756" lon="5.5112">
        <ele>997</ele>
        <time>2021-07-26T01:47:20Z</time>
      </trkpt>
      <trkpt lat="44.59775" lon="5.51207">
        <ele>993</ele>
        <time>2021-07-26T01:48:12Z</time>
      </trkpt>
      <trkpt lat="44.59801" lon="5.51252">
        <ele>994</ele>
        <time>2021-07-26T01:48:45Z</time>
      </trkpt>
      <trkpt lat="44.59812" lon="5.51425">
        <ele>995</ele>
        <time>2021-07-26T01:50:24Z</time>
      </trkpt>
      <trkpt lat="44.59835" lon="5.51499">
        <ele>995</ele>
        <time>2021-07-26T01:51:10Z</time>
      </trkpt>
      <trkpt lat="44.59807" lon="5.51559">
        <ele>992</ele>
        <time>2021-07-26T01:51:51Z</time>
      </trkpt>
      <trkpt lat="44.59835" lon="5.51705">
        <ele>998</ele>
        <time>2021-07-26T01:53:17Z</time>
      </trkpt>
      <trkpt lat="44.59871" lon="5.51936">
        <ele>1009</ele>
        <time>2021-07-26T01:55:32Z</time>
      </trkpt>
      <trkpt lat="44.5983" lon="5.52075">
        <ele>1005</ele>
        <time>2021-07-26T01:56:58Z</time>
      </trkpt>
      <trkpt lat="44.59786" lon="5.52298">
        <ele>1010</ele>
        <time>2021-07-26T01:59:10Z</time>
      </trkpt>
      <trkpt lat="44.59781" lon="5.52493">
        <ele>1018</ele>
        <time>2021-07-26T02:01:01Z</time>
      </trkpt>
      <trkpt lat="44.59765" lon="5.52602">
        <ele>1023</ele>
        <time>2021-07-26T02:02:04Z</time>
      </trkpt>
      <trkpt lat="44.59691" lon="5.528">
        <ele>1025</ele>
        <time>2021-07-26T02:04:12Z</time>
      </trkpt>
      <trkpt lat="44.59673" lon="5.52872">
        <ele>1024</ele>
        <time>2021-07-26T02:04:55Z</time>
      </trkpt>
      <trkpt lat="44.59659" lon="5.52968">
        <ele>1022</ele>
        <time>2021-07-26T02:05:51Z</time>
      </trkpt>
      <trkpt lat="44.59631" lon="5.53118">
        <ele>1017</ele>
        <time>2021-07-26T02:07:20Z</time>
      </trkpt>
      <trkpt lat="44.59567" lon="5.53165">
        <ele>1010</ele>
        <time>2021-07-26T02:08:18Z</time>
      </trkpt>
      <trkpt lat="44.59567" lon="5.53305">
        <ele>1010</ele>
        <time>2021-07-26T02:09:37Z</time>
      </trkpt>
      <trkpt lat="44.59547" lon="5.53354">
        <ele>1009</ele>
        <time>2021-07-26T02:10:10Z</time>
      </trkpt>
      <trkpt lat="44.59546" lon="5.53457">
        <ele>1009</ele>
        <time>2021-07-26T02:11:08Z</time>
      </trkpt>
      <trkpt lat="44.5951" lon="5.53551">
        <ele>1008</ele>
        <time>2021-07-26T02:12:09Z</time>
      </trkpt>
      <trkpt lat="44.59483" lon="5.53659">
        <ele>1008</ele>
        <time>2021-07-26T02:13:14Z</time>
      </trkpt>
      <trkpt lat="44.59493" lon="5.53774">
        <ele>1012</ele>
        <time>2021-07-26T02:14:21Z</time>
      </trkpt>
      <trkpt lat="44.59452" lon="5.53906">
        <ele>1008</ele>
        <time>2021-07-26T02:15:43Z</time>
      </trkpt>
      <trkpt lat="44.59441" lon="5.54036">
        <ele>1008</ele>
        <time>2021-07-26T02:16:57Z</time>
      </trkpt>
      <trkpt lat="44.59461" lon="5.54175">
        <ele>1015</ele>
        <time>2021-07-26T02:18:18Z</time>
      </trkpt>
      <trkpt lat="44.5946" lon="5.54373">
        <ele>1022</ele>
        <time>2021-07-26T02:20:11Z</time>
      </trkpt>
      <trkpt lat="44.59497" lon="5.54734">
        <ele>1032</ele>
        <time>2021-07-26T02:23:39Z</time>
      </trkpt>
      <trkpt lat="44.59404" lon="5.54862">
        <ele>1039</ele>
        <time>2021-07-26T02:25:23Z</time>
      </trkpt>
      <trkpt lat="44.59307" lon="5.55063">
        <ele>1053</ele>
        <time>2021-07-26T02:27:42Z</time>
      </trkpt>
      <trkpt lat="44.59262" lon="5.55276">
        <ele>1056</ele>
        <time>2021-07-26T02:29:48Z</time>
      </trkpt>
      <trkpt lat="44.59249" lon="5.55516">
        <ele>1045</ele>
        <time>2021-07-26T02:32:06Z</time>
      </trkpt>
      <trkpt lat="44.59325" lon="5.55492">
        <ele>1045</ele>
        <time>2021-07-26T02:33:08Z</time>
      </trkpt>
      <trkpt lat="44.59317" lon="5.55539">
        <ele>1044</ele>
        <time>2021-07-26T02:33:36Z</time>
      </trkpt>
      <trkpt lat="44.5927" lon="5.55584">
        <ele>1040</ele>
        <time>2021-07-26T02:34:21Z</time>
      </trkpt>
      <trkpt lat="44.59176" lon="5.55828">
        <ele>1024</ele>
        <time>2021-07-26T02:36:59Z</time>
      </trkpt>
      <trkpt lat="44.59125" lon="5.56017">
        <ele>999</ele>
        <time>2021-07-26T02:38:54Z</time>
      </trkpt>
      <trkpt lat="44.59148" lon="5.56149">
        <ele>967</ele>
        <time>2021-07-26T02:40:12Z</time>
      </trkpt>
      <trkpt lat="44.5929" lon="5.56268">
        <ele>956</ele>
        <time>2021-07-26T02:42:24Z</time>
      </trkpt>
      <trkpt lat="44.59396" lon="5.56373">
        <ele>951</ele>
        <time>2021-07-26T02:44:08Z</time>
      </trkpt>
      <trkpt lat="44.5951" lon="5.56454">
        <ele>968</ele>
        <time>2021-07-26T02:45:51Z</time>
      </trkpt>
      <trkpt lat="44.59622" lon="5.56528">
        <ele>970</ele>
        <time>2021-07-26T02:47:30Z</time>
      </trkpt>
      <trkpt lat="44.59658" lon="5.56586">
        <ele>962</ele>
        <time>2021-07-26T02:48:13Z</time>
      </trkpt>
      <trkpt lat="44.59771" lon="5.56604">
        <ele>981</ele>
        <time>2021-07-26T02:49:45Z</time>
      </trkpt>
      <trkpt lat="44.59825" lon="5.56654">
        <ele>987</ele>
        <time>2021-07-26T02:50:36Z</time>
      </trkpt>
      <trkpt lat="44.59852" lon="5.56768">
        <ele>983</ele>
        <time>2021-07-26T02:51:45Z</time>
      </trkpt>
      <trkpt lat="44.59881" lon="5.56847">
        <ele>988</ele>
        <time>2021-07-26T02:52:36Z</time>
      </trkpt>
      <trkpt lat="44.59861" lon="5.56905">
        <ele>983</ele>
        <time>2021-07-26T02:53:12Z</time>
      </trkpt>
      <trkpt lat="44.59879" lon="5.5702">
        <ele>983</ele>
        <time>2021-07-26T02:54:19Z</time>
      </trkpt>
      <trkpt lat="44.59924" lon="5.57098">
        <ele>986</ele>
        <time>2021-07-26T02:55:17Z</time>
      </trkpt>
      <trkpt lat="44.59929" lon="5.57167">
        <ele>989</ele>
        <time>2021-07-26T02:55:56Z</time>
      </trkpt>
      <trkpt lat="44.59825" lon="5.57255">
        <ele>974</ele>
        <time>2021-07-26T02:57:33Z</time>
      </trkpt>
      <trkpt lat="44.59802" lon="5.57327">
        <ele>971</ele>
        <time>2021-07-26T02:58:18Z</time>
      </trkpt>
      <trkpt lat="44.59753" lon="5.57318">
        <ele>962</ele>
        <time>2021-07-26T02:58:58Z</time>
      </trkpt>
      <trkpt lat="44.59748" lon="5.57416">
        <ele>967</ele>
        <time>2021-07-26T02:59:54Z</time>
      </trkpt>
      <trkpt lat="44.5984" lon="5.57446">
        <ele>979</ele>
        <time>2021-07-26T03:01:10Z</time>
      </trkpt>
      <trkpt lat="44.59856" lon="5.57668">
        <ele>991</ele>
        <time>2021-07-26T03:03:17Z</time>
      </trkpt>
      <trkpt lat="44.59826" lon="5.57764">
        <ele>993</ele>
        <time>2021-07-26T03:04:17Z</time>
      </trkpt>
      <trkpt lat="44.59775" lon="5.57816">
        <ele>985</ele>
        <time>2021-07-26T03:05:07Z</time>
      </trkpt>
      <trkpt lat="44.59722" lon="5.57887">
        <ele>980</ele>
        <time>2021-07-26T03:06:06Z</time>
      </trkpt>
      <trkpt lat="44.59699" lon="5.57982">
        <ele>979</ele>
        <time>2021-07-26T03:07:03Z</time>
      </trkpt>
      <trkpt lat="44.59705" lon="5.58024">
        <ele>983</ele>
        <time>2021-07-26T03:07:27Z</time>
      </trkpt>
      <trkpt lat="44.59669" lon="5.58101">
        <ele>979</ele>
        <time>2021-07-26T03:08:20Z</time>
      </trkpt>
      <trkpt lat="44.59613" lon="5.58117">
        <ele>966</ele>
        <time>2021-07-26T03:09:06Z</time>
      </trkpt>
      <trkpt lat="44.59571" lon="5.58201">
        <ele>964</ele>
        <time>2021-07-26T03:10:04Z</time>
      </trkpt>
      <trkpt lat="44.59572" lon="5.58309">
        <ele>966</ele>
        <time>2021-07-26T03:11:06Z</time>
      </trkpt>
      <trkpt lat="44.59599" lon="5.5844">
        <ele>978</ele>
        <time>2021-07-26T03:12:23Z</time>
      </trkpt>
      <trkpt lat="44.59571" lon="5.58473">
        <ele>972</ele>
        <time>2021-07-26T03:12:53Z</time>
      </trkpt>
      <trkpt lat="44.59589" lon="5.58588">
        <ele>989</ele>
        <time>2021-07-26T03:14:00Z</time>
      </trkpt>
      <trkpt lat="44.59526" lon="5.58648">
        <ele>989</ele>
        <time>2021-07-26T03:15:01Z</time>
      </trkpt>
      <trkpt lat="44.59589" lon="5.58749">
        <ele>1017</ele>
        <time>2021-07-26T03:16:17Z</time>
      </trkpt>
      <trkpt lat="44.59616" lon="5.58776">
        <ele>1025</ele>
        <time>2021-07-26T03:16:44Z</time>
      </trkpt>
      <trkpt lat="44.59585" lon="5.5881">
        <ele>1032</ele>
        <time>2021-07-26T03:17:15Z</time>
      </trkpt>
      <trkpt lat="44.59633" lon="5.58836">
        <ele>1040</ele>
        <time>2021-07-26T03:17:57Z</time>
      </trkpt>
      <trkpt lat="44.5945" lon="5.58866">
        <ele>1048</ele>
        <time>2021-07-26T03:20:24Z</time>
      </trkpt>
      <trkpt lat="44.59337" lon="5.59187">
        <ele>1073</ele>
        <time>2021-07-26T03:23:48Z</time>
      </trkpt>
      <trkpt lat="44.59281" lon="5.59363">
        <ele>1080</ele>
        <time>2021-07-26T03:25:38Z</time>
      </trkpt>
      <trkpt lat="44.59262" lon="5.59492">
        <ele>1085</ele>
        <time>2021-07-26T03:26:53Z</time>
      </trkpt>
      <trkpt lat="44.59242" lon="5.59566">
        <ele>1084</ele>
        <time>2021-07-26T03:27:38Z</time>
      </trkpt>
      <trkpt lat="44.59271" lon="5.59579">
        <ele>1096</ele>
        <time>2021-07-26T03:28:03Z</time>
      </trkpt>
      <trkpt lat="44.59244" lon="5.59718">
        <ele>1087</ele>
        <time>2021-07-26T03:29:25Z</time>
      </trkpt>
      <trkpt lat="44.59324" lon="5.59761">
        <ele>1111</ele>
        <time>2021-07-26T03:30:33Z</time>
      </trkpt>
      <trkpt lat="44.59373" lon="5.59936">
        <ele>1111</ele>
        <time>2021-07-26T03:32:21Z</time>
      </trkpt>
      <trkpt lat="44.59415" lon="5.59761">
        <ele>1141</ele>
        <time>2021-07-26T03:34:06Z</time>
      </trkpt>
      <trkpt lat="44.59361" lon="5.59711">
        <ele>1130</ele>
        <time>2021-07-26T03:34:58Z</time>
      </trkpt>
      <trkpt lat="44.59425" lon="5.59455">
        <ele>1156</ele>
        <time>2021-07-26T03:37:32Z</time>
      </trkpt>
      <trkpt lat="44.59523" lon="5.59213">
        <ele>1157</ele>
        <time>2021-07-26T03:40:11Z</time>
      </trkpt>
      <trkpt lat="44.59582" lon="5.59206">
        <ele>1170</ele>
        <time>2021-07-26T03:40:59Z</time>
      </trkpt>
      <trkpt lat="44.59729" lon="5.5935">
        <ele>1208</ele>
        <time>2021-07-26T03:43:22Z</time>
      </trkpt>
      <trkpt lat="44.59819" lon="5.59332">
        <ele>1222</ele>
        <time>2021-07-26T03:44:35Z</time>
      </trkpt>
      <trkpt lat="44.59839" lon="5.59296">
        <ele>1219</ele>
        <time>2021-07-26T03:45:01Z</time>
      </trkpt>
      <trkpt lat="44.59947" lon="5.59292">
        <ele>1244</ele>
        <time>2021-07-26T03:46:27Z</time>
      </trkpt>
      <trkpt lat="44.60086" lon="5.59317">
        <ele>1269</ele>
        <time>2021-07-26T03:48:20Z</time>
      </trkpt>
      <trkpt lat="44.60248" lon="5.59231">
        <ele>1298</ele>
        <time>2021-07-26T03:50:38Z</time>
      </trkpt>
      <trkpt lat="44.60273" lon="5.59242">
        <ele>1308</ele>
        <time>2021-07-26T03:50:59Z</time>
      </trkpt>
      <trkpt lat="44.60409" lon="5.59065">
        <ele>1329</ele>
        <time>2021-07-26T03:53:28Z</time>
      </trkpt>
      <trkpt lat="44.60479" lon="5.58957">
        <ele>1347</ele>
        <time>2021-07-26T03:54:51Z</time>
      </trkpt>
      <trkpt lat="44.60481" lon="5.5887">
        <ele>1354</ele>
        <time>2021-07-26T03:55:41Z</time>
      </trkpt>
      <trkpt lat="44.60507" lon="5.58924">
        <ele>1349</ele>
        <time>2021-07-26T03:56:18Z</time>
      </trkpt>
      <trkpt lat="44.60556" lon="5.58812">
        <ele>1342</ele>
        <time>2021-07-26T03:57:33Z</time>
      </trkpt>
      <trkpt lat="44.60551" lon="5.58722">
        <ele>1350</ele>
        <time>2021-07-26T03:58:24Z</time>
      </trkpt>
      <trkpt lat="44.60633" lon="5.58462">
        <ele>1331</ele>
        <time>2021-07-26T04:01:06Z</time>
      </trkpt>
      <trkpt lat="44.60857" lon="5.58282">
        <ele>1294</ele>
        <time>2021-07-26T04:04:33Z</time>
      </trkpt>
      <trkpt lat="44.60926" lon="5.58213">
        <ele>1294</ele>
        <time>2021-07-26T04:05:41Z</time>
      </trkpt>
      <trkpt lat="44.61013" lon="5.58191">
        <ele>1271</ele>
        <time>2021-07-26T04:06:52Z</time>
      </trkpt>
      <trkpt lat="44.6108" lon="5.57935">
        <ele>1256</ele>
        <time>2021-07-26T04:09:27Z</time>
      </trkpt>
      <trkpt lat="44.6117" lon="5.5787">
        <ele>1237</ele>
        <time>2021-07-26T04:10:48Z</time>
      </trkpt>
      <trkpt lat="44.61278" lon="5.57784">
        <ele>1212</ele>
        <time>2021-07-26T04:12:27Z</time>
      </trkpt>
      <trkpt lat="44.61247" lon="5.57654">
        <ele>1226</ele>
        <time>2021-07-26T04:13:46Z</time>
      </trkpt>
      <trkpt lat="44.61286" lon="5.57542">
        <ele>1231</ele>
        <time>2021-07-26T04:14:57Z</time>
      </trkpt>
      <trkpt lat="44.61414" lon="5.57383">
        <ele>1231</ele>
        <time>2021-07-26T04:17:13Z</time>
      </trkpt>
      <trkpt lat="44.6144" lon="5.5712">
        <ele>1237</ele>
        <time>2021-07-26T04:19:45Z</time>
      </trkpt>
      <trkpt lat="44.61375" lon="5.57037">
        <ele>1258</ele>
        <time>2021-07-26T04:20:55Z</time>
      </trkpt>
      <trkpt lat="44.61363" lon="5.56928">
        <ele>1247</ele>
        <time>2021-07-26T04:21:58Z</time>
      </trkpt>
      <trkpt lat="44.61296" lon="5.5686">
        <ele>1268</ele>
        <time>2021-07-26T04:23:04Z</time>
      </trkpt>
      <trkpt lat="44.61288" lon="5.5678">
        <ele>1278</ele>
        <time>2021-07-26T04:23:50Z</time>
      </trkpt>
      <trkpt lat="44.61393" lon="5.56679">
        <ele>1266</ele>
        <time>2021-07-26T04:25:32Z</time>
      </trkpt>
      <trkpt lat="44.61465" lon="5.56694">
        <ele>1249</ele>
        <time>2021-07-26T04:26:30Z</time>
      </trkpt>
      <trkpt lat="44.61489" lon="5.56744">
        <ele>1233</ele>
        <time>2021-07-26T04:27:05Z</time>
      </trkpt>
      <trkpt lat="44.6154" lon="5.56741">
        <ele>1223</ele>
        <time>2021-07-26T04:27:46Z</time>
      </trkpt>
      <trkpt lat="44.61607" lon="5.56614">
        <ele>1222</ele>
        <time>2021-07-26T04:29:16Z</time>
      </trkpt>
      <trkpt lat="44.61709" lon="5.56492">
        <ele>1198</ele>
        <time>2021-07-26T04:31:03Z</time>
      </trkpt>
      <trkpt lat="44.61771" lon="5.56571">
        <ele>1188</ele>
        <time>2021-07-26T04:32:10Z</time>
      </trkpt>
      <trkpt lat="44.6181" lon="5.56719">
        <ele>1181</ele>
        <time>2021-07-26T04:33:40Z</time>
      </trkpt>
      <trkpt lat="44.61811" lon="5.56829">
        <ele>1170</ele>
        <time>2021-07-26T04:34:43Z</time>
      </trkpt>
      <trkpt lat="44.61785" lon="5.56814">
        <ele>1166</ele>
        <time>2021-07-26T04:35:05Z</time>
      </trkpt>
      <trkpt lat="44.61782" lon="5.57015">
        <ele>1146</ele>
        <time>2021-07-26T04:37:00Z</time>
      </trkpt>
      <trkpt lat="44.61767" lon="5.56956">
        <ele>1147</ele>
        <time>2021-07-26T04:37:35Z</time>
      </trkpt>
      <trkpt lat="44.61749" lon="5.56964">
        <ele>1141</ele>
        <time>2021-07-26T04:37:51Z</time>
      </trkpt>
      <trkpt lat="44.61757" lon="5.57087">
        <ele>1131</ele>
        <time>2021-07-26T04:39:01Z</time>
      </trkpt>
      <trkpt lat="44.61708" lon="5.57158">
        <ele>1126</ele>
        <time>2021-07-26T04:39:57Z</time>
      </trkpt>
      <trkpt lat="44.61681" lon="5.5719">
        <ele>1127</ele>
        <time>2021-07-26T04:40:26Z</time>
      </trkpt>
      <trkpt lat="44.61686" lon="5.57305">
        <ele>1118</ele>
        <time>2021-07-26T04:41:31Z</time>
      </trkpt>
      <trkpt lat="44.61686" lon="5.57361">
        <ele>1115</ele>
        <time>2021-07-26T04:42:03Z</time>
      </trkpt>
      <trkpt lat="44.61719" lon="5.57425">
        <ele>1105</ele>
        <time>2021-07-26T04:42:48Z</time>
      </trkpt>
      <trkpt lat="44.61699" lon="5.57531">
        <ele>1100</ele>
        <time>2021-07-26T04:43:51Z</time>
      </trkpt>
      <trkpt lat="44.61731" lon="5.57674">
        <ele>1078</ele>
        <time>2021-07-26T04:45:16Z</time>
      </trkpt>
      <trkpt lat="44.61775" lon="5.57832">
        <ele>1059</ele>
        <time>2021-07-26T04:46:53Z</time>
      </trkpt>
      <trkpt lat="44.61761" lon="5.57854">
        <ele>1058</ele>
        <time>2021-07-26T04:47:10Z</time>
      </trkpt>
      <trkpt lat="44.61732" lon="5.57779">
        <ele>1065</ele>
        <time>2021-07-26T04:47:58Z</time>
      </trkpt>
      <trkpt lat="44.61719" lon="5.57779">
        <ele>1064</ele>
        <time>2021-07-26T04:48:09Z</time>
      </trkpt>
      <trkpt lat="44.61729" lon="5.57856">
        <ele>1057</ele>
        <time>2021-07-26T04:48:53Z</time>
      </trkpt>
      <trkpt lat="44.61726" lon="5.5792">
        <ele>1049</ele>
        <time>2021-07-26T04:49:30Z</time>
      </trkpt>
      <trkpt lat="44.61741" lon="5.57983">
        <ele>1040</ele>
        <time>2021-07-26T04:50:08Z</time>
      </trkpt>
      <trkpt lat="44.6176" lon="5.58003">
        <ele>1035</ele>
        <time>2021-07-26T04:50:27Z</time>
      </trkpt>
      <trkpt lat="44.61791" lon="5.57915">
        <ele>1046</ele>
        <time>2021-07-26T04:51:23Z</time>
      </trkpt>
      <trkpt lat="44.61822" lon="5.5787">
        <ele>1047</ele>
        <time>2021-07-26T04:51:58Z</time>
      </trkpt>
      <trkpt lat="44.61834" lon="5.57827">
        <ele>1051</ele>
        <time>2021-07-26T04:52:25Z</time>
      </trkpt>
      <trkpt lat="44.61852" lon="5.57857">
        <ele>1054</ele>
        <time>2021-07-26T04:52:47Z</time>
      </trkpt>
      <trkpt lat="44.61836" lon="5.57955">
        <ele>1035</ele>
        <time>2021-07-26T04:53:44Z</time>
      </trkpt>
      <trkpt lat="44.61848" lon="5.58014">
        <ele>1024</ele>
        <time>2021-07-26T04:54:19Z</time>
      </trkpt>
      <trkpt lat="44.61875" lon="5.58052">
        <ele>1013</ele>
        <time>2021-07-26T04:54:50Z</time>
      </trkpt>
      <trkpt lat="44.61983" lon="5.58012">
        <ele>1016</ele>
        <time>2021-07-26T04:56:19Z</time>
      </trkpt>
      <trkpt lat="44.62091" lon="5.58036">
        <ele>1006</ele>
        <time>2021-07-26T04:57:47Z</time>
      </trkpt>
      <trkpt lat="44.62143" lon="5.58082">
        <ele>993</ele>
        <time>2021-07-26T04:58:36Z</time>
      </trkpt>
      <trkpt lat="44.62208" lon="5.58102">
        <ele>984</ele>
        <time>2021-07-26T04:59:29Z</time>
      </trkpt>
      <trkpt lat="44.62302" lon="5.58036">
        <ele>989</ele>
        <time>2021-07-26T05:00:54Z</time>
      </trkpt>
      <trkpt lat="44.62315" lon="5.58008">
        <ele>997</ele>
        <time>2021-07-26T05:01:13Z</time>
      </trkpt>
      <trkpt lat="44.62397" lon="5.5802">
        <ele>961</ele>
        <time>2021-07-26T05:02:19Z</time>
      </trkpt>
      <trkpt lat="44.62326" lon="5.58046">
        <ele>976</ele>
        <time>2021-07-26T05:03:17Z</time>
      </trkpt>
      <trkpt lat="44.62234" lon="5.58173">
        <ele>952</ele>
        <time>2021-07-26T05:05:01Z</time>
      </trkpt>
      <trkpt lat="44.62206" lon="5.58181">
        <ele>954</ele>
        <time>2021-07-26T05:05:23Z</time>
      </trkpt>
      <trkpt lat="44.62137" lon="5.58211">
        <ele>953</ele>
        <time>2021-07-26T05:06:21Z</time>
      </trkpt>
      <trkpt lat="44.62112" lon="5.58238">
        <ele>953</ele>
        <time>2021-07-26T05:06:47Z</time>
      </trkpt>
      <trkpt lat="44.62167" lon="5.58235">
        <ele>945</ele>
        <time>2021-07-26T05:07:31Z</time>
      </trkpt>
      <trkpt lat="44.6224" lon="5.58247">
        <ele>934</ele>
        <time>2021-07-26T05:08:29Z</time>
      </trkpt>
      <trkpt lat="44.62269" lon="5.58217">
        <ele>938</ele>
        <time>2021-07-26T05:08:58Z</time>
      </trkpt>
      <trkpt lat="44.62474" lon="5.5815">
        <ele>914</ele>
        <time>2021-07-26T05:11:47Z</time>
      </trkpt>
      <trkpt lat="44.62534" lon="5.58117">
        <ele>913</ele>
        <time>2021-07-26T05:12:38Z</time>
      </trkpt>
      <trkpt lat="44.62655" lon="5.58032">
        <ele>898</ele>
        <time>2021-07-26T05:14:27Z</time>
      </trkpt>
      <trkpt lat="44.62737" lon="5.58005">
        <ele>890</ele>
        <time>2021-07-26T05:15:34Z</time>
      </trkpt>
      <trkpt lat="44.62759" lon="5.57968">
        <ele>890</ele>
        <time>2021-07-26T05:16:02Z</time>
      </trkpt>
      <trkpt lat="44.62821" lon="5.57935">
        <ele>886</ele>
        <time>2021-07-26T05:16:55Z</time>
      </trkpt>
      <trkpt lat="44.62906" lon="5.57939">
        <ele>873</ele>
        <time>2021-07-26T05:18:03Z</time>
      </trkpt>
      <trkpt lat="44.62968" lon="5.57919">
        <ele>866</ele>
        <time>2021-07-26T05:18:54Z</time>
      </trkpt>
      <trkpt lat="44.63029" lon="5.57942">
        <ele>861</ele>
        <time>2021-07-26T05:19:44Z</time>
      </trkpt>
      <trkpt lat="44.63113" lon="5.58003">
        <ele>852</ele>
        <time>2021-07-26T05:21:00Z</time>
      </trkpt>
      <trkpt lat="44.63205" lon="5.58056">
        <ele>852</ele>
        <time>2021-07-26T05:22:20Z</time>
      </trkpt>
      <trkpt lat="44.63338" lon="5.58085">
        <ele>833</ele>
        <time>2021-07-26T05:24:07Z</time>
      </trkpt>
      <trkpt lat="44.63398" lon="5.58062">
        <ele>832</ele>
        <time>2021-07-26T05:24:57Z</time>
      </trkpt>
      <trkpt lat="44.63416" lon="5.58108">
        <ele>832</ele>
        <time>2021-07-26T05:25:27Z</time>
      </trkpt>
      <trkpt lat="44.63458" lon="5.57985">
        <ele>843</ele>
        <time>2021-07-26T05:26:45Z</time>
      </trkpt>
      <trkpt lat="44.63572" lon="5.57799">
        <ele>841</ele>
        <time>2021-07-26T05:29:05Z</time>
      </trkpt>
      <trkpt lat="44.63643" lon="5.57715">
        <ele>838</ele>
        <time>2021-07-26T05:30:19Z</time>
      </trkpt>
      <trkpt lat="44.63861" lon="5.57582">
        <ele>820</ele>
        <time>2021-07-26T05:33:29Z</time>
      </trkpt>
      <trkpt lat="44.64012" lon="5.57357">
        <ele>813</ele>
        <time>2021-07-26T05:36:26Z</time>
      </trkpt>
      <trkpt lat="44.64082" lon="5.5726">
        <ele>813</ele>
        <time>2021-07-26T05:37:44Z</time>
      </trkpt>
      <trkpt lat="44.64191" lon="5.57225">
        <ele>810</ele>
        <time>2021-07-26T05:39:14Z</time>
      </trkpt>
      <trkpt lat="44.64269" lon="5.57156">
        <ele>809</ele>
        <time>2021-07-26T05:40:28Z</time>
      </trkpt>
      <trkpt lat="44.64331" lon="5.57123">
        <ele>806</ele>
        <time>2021-07-26T05:41:21Z</time>
      </trkpt>
      <trkpt lat="44.64373" lon="5.5702">
        <ele>810</ele>
        <time>2021-07-26T05:42:28Z</time>
      </trkpt>
      <trkpt lat="44.64518" lon="5.56954">
        <ele>805</ele>
        <time>2021-07-26T05:44:30Z</time>
      </trkpt>
      <trkpt lat="44.64611" lon="5.56895">
        <ele>807</ele>
        <time>2021-07-26T05:45:52Z</time>
      </trkpt>
      <trkpt lat="44.64749" lon="5.56745">
        <ele>805</ele>
        <time>2021-07-26T05:48:12Z</time>
      </trkpt>
      <trkpt lat="44.64856" lon="5.56551">
        <ele>802</ele>
        <time>2021-07-26T05:50:32Z</time>
      </trkpt>
      <trkpt lat="44.64967" lon="5.56582">
        <ele>815</ele>
        <time>2021-07-26T05:52:02Z</time>
      </trkpt>
      <trkpt lat="44.64959" lon="5.56658">
        <ele>825</ele>
        <time>2021-07-26T05:52:46Z</time>
      </trkpt>
      <trkpt lat="44.64996" lon="5.5665">
        <ele>825</ele>
        <time>2021-07-26T05:53:16Z</time>
      </trkpt>
      <trkpt lat="44.65085" lon="5.56712">
        <ele>835</ele>
        <time>2021-07-26T05:54:35Z</time>
      </trkpt>
      <trkpt lat="44.65099" lon="5.5677">
        <ele>837</ele>
        <time>2021-07-26T05:55:10Z</time>
      </trkpt>
      <trkpt lat="44.65115" lon="5.57084">
        <ele>871</ele>
        <time>2021-07-26T05:58:10Z</time>
      </trkpt>
      <trkpt lat="44.65147" lon="5.57131">
        <ele>878</ele>
        <time>2021-07-26T05:58:47Z</time>
      </trkpt>
      <trkpt lat="44.65147" lon="5.57399">
        <ele>916</ele>
        <time>2021-07-26T06:01:19Z</time>
      </trkpt>
      <trkpt lat="44.6512" lon="5.57496">
        <ele>921</ele>
        <time>2021-07-26T06:02:19Z</time>
      </trkpt>
      <trkpt lat="44.65066" lon="5.57593">
        <ele>929</ele>
        <time>2021-07-26T06:03:29Z</time>
      </trkpt>
      <trkpt lat="44.65017" lon="5.57798">
        <ele>945</ele>
        <time>2021-07-26T06:05:32Z</time>
      </trkpt>
      <trkpt lat="44.64994" lon="5.57936">
        <ele>961</ele>
        <time>2021-07-26T06:06:53Z</time>
      </trkpt>
      <trkpt lat="44.65026" lon="5.58308">
        <ele>1016</ele>
        <time>2021-07-26T06:10:26Z</time>
      </trkpt>
      <trkpt lat="44.64992" lon="5.58323">
        <ele>1023</ele>
        <time>2021-07-26T06:10:55Z</time>
      </trkpt>
      <trkpt lat="44.65026" lon="5.58358">
        <ele>1025</ele>
        <time>2021-07-26T06:11:28Z</time>
      </trkpt>
      <trkpt lat="44.65065" lon="5.58414">
        <ele>1029</ele>
        <time>2021-07-26T06:12:13Z</time>
      </trkpt>
      <trkpt lat="44.65069" lon="5.58536">
        <ele>1044</ele>
        <time>2021-07-26T06:13:23Z</time>
      </trkpt>
      <trkpt lat="44.65032" lon="5.586">
        <ele>1055</ele>
        <time>2021-07-26T06:14:10Z</time>
      </trkpt>
      <trkpt lat="44.65027" lon="5.58707">
        <ele>1067</ele>
        <time>2021-07-26T06:15:11Z</time>
      </trkpt>
      <trkpt lat="44.64988" lon="5.59126">
        <ele>1099</ele>
        <time>2021-07-26T06:19:11Z</time>
      </trkpt>
      <trkpt lat="44.65099" lon="5.59381">
        <ele>1109</ele>
        <time>2021-07-26T06:22:02Z</time>
      </trkpt>
      <trkpt lat="44.65237" lon="5.59537">
        <ele>1134</ele>
        <time>2021-07-26T06:24:23Z</time>
      </trkpt>
      <trkpt lat="44.65355" lon="5.59715">
        <ele>1152</ele>
        <time>2021-07-26T06:26:42Z</time>
      </trkpt>
      <trkpt lat="44.6531" lon="5.5982">
        <ele>1148</ele>
        <time>2021-07-26T06:27:52Z</time>
      </trkpt>
      <trkpt lat="44.65366" lon="5.59973">
        <ele>1160</ele>
        <time>2021-07-26T06:29:30Z</time>
      </trkpt>
      <trkpt lat="44.65377" lon="5.60055">
        <ele>1161</ele>
        <time>2021-07-26T06:30:17Z</time>
      </trkpt>
      <trkpt lat="44.65479" lon="5.60072">
        <ele>1184</ele>
        <time>2021-07-26T06:31:40Z</time>
      </trkpt>
      <trkpt lat="44.65586" lon="5.60203">
        <ele>1204</ele>
        <time>2021-07-26T06:33:33Z</time>
      </trkpt>
      <trkpt lat="44.65582" lon="5.6034">
        <ele>1211</ele>
        <time>2021-07-26T06:34:51Z</time>
      </trkpt>
      <trkpt lat="44.65646" lon="5.60448">
        <ele>1223</ele>
        <time>2021-07-26T06:36:11Z</time>
      </trkpt>
      <trkpt lat="44.65615" lon="5.60613">
        <ele>1224</ele>
        <time>2021-07-26T06:37:49Z</time>
      </trkpt>
      <trkpt lat="44.65684" lon="5.60807">
        <ele>1246</ele>
        <time>2021-07-26T06:39:52Z</time>
      </trkpt>
      <trkpt lat="44.65729" lon="5.60876">
        <ele>1256</ele>
        <time>2021-07-26T06:40:45Z</time>
      </trkpt>
      <trkpt lat="44.65754" lon="5.61019">
        <ele>1264</ele>
        <time>2021-07-26T06:42:09Z</time>
      </trkpt>
      <trkpt lat="44.65805" lon="5.61496">
        <ele>1281</ele>
        <time>2021-07-26T06:46:44Z</time>
      </trkpt>
      <trkpt lat="44.65856" lon="5.61685">
        <ele>1296</ele>
        <time>2021-07-26T06:48:39Z</time>
      </trkpt>
      <trkpt lat="44.65858" lon="5.6178">
        <ele>1297</ele>
        <time>2021-07-26T06:49:33Z</time>
      </trkpt>
      <trkpt lat="44.658" lon="5.61889">
        <ele>1288</ele>
        <time>2021-07-26T06:50:51Z</time>
      </trkpt>
      <trkpt lat="44.65796" lon="5.61971">
        <ele>1287</ele>
        <time>2021-07-26T06:51:38Z</time>
      </trkpt>
      <trkpt lat="44.65809" lon="5.62068">
        <ele>1285</ele>
        <time>2021-07-26T06:52:34Z</time>
      </trkpt>
      <trkpt lat="44.65843" lon="5.62162">
        <ele>1279</ele>
        <time>2021-07-26T06:53:34Z</time>
      </trkpt>
      <trkpt lat="44.65827" lon="5.62354">
        <ele>1276</ele>
        <time>2021-07-26T06:55:24Z</time>
      </trkpt>
      <trkpt lat="44.65885" lon="5.62479">
        <ele>1260</ele>
        <time>2021-07-26T06:56:49Z</time>
      </trkpt>
      <trkpt lat="44.65972" lon="5.6255">
        <ele>1232</ele>
        <time>2021-07-26T06:58:10Z</time>
      </trkpt>
      <trkpt lat="44.65983" lon="5.62619">
        <ele>1227</ele>
        <time>2021-07-26T06:58:50Z</time>
      </trkpt>
      <trkpt lat="44.66172" lon="5.62706">
        <ele>1188</ele>
        <time>2021-07-26T07:01:29Z</time>
      </trkpt>
      <trkpt lat="44.66061" lon="5.62726">
        <ele>1203</ele>
        <time>2021-07-26T07:02:59Z</time>
      </trkpt>
      <trkpt lat="44.66005" lon="5.62744">
        <ele>1212</ele>
        <time>2021-07-26T07:03:45Z</time>
      </trkpt>
      <trkpt lat="44.66025" lon="5.62805">
        <ele>1204</ele>
        <time>2021-07-26T07:04:23Z</time>
      </trkpt>
      <trkpt lat="44.6598" lon="5.62897">
        <ele>1206</ele>
        <time>2021-07-26T07:05:26Z</time>
      </trkpt>
      <trkpt lat="44.65872" lon="5.62923">
        <ele>1221</ele>
        <time>2021-07-26T07:06:54Z</time>
      </trkpt>
      <trkpt lat="44.65871" lon="5.6304">
        <ele>1213</ele>
        <time>2021-07-26T07:08:01Z</time>
      </trkpt>
      <trkpt lat="44.65909" lon="5.63191">
        <ele>1209</ele>
        <time>2021-07-26T07:09:32Z</time>
      </trkpt>
      <trkpt lat="44.6594" lon="5.63341">
        <ele>1215</ele>
        <time>2021-07-26T07:11:01Z</time>
      </trkpt>
      <trkpt lat="44.66001" lon="5.63406">
        <ele>1207</ele>
        <time>2021-07-26T07:12:02Z</time>
      </trkpt>
      <trkpt lat="44.6595" lon="5.63586">
        <ele>1225</ele>
        <time>2021-07-26T07:13:53Z</time>
      </trkpt>
      <trkpt lat="44.66026" lon="5.63693">
        <ele>1215</ele>
        <time>2021-07-26T07:15:19Z</time>
      </trkpt>
      <trkpt lat="44.66099" lon="5.63693">
        <ele>1198</ele>
        <time>2021-07-26T07:16:17Z</time>
      </trkpt>
      <trkpt lat="44.66163" lon="5.63796">
        <ele>1192</ele>
        <time>2021-07-26T07:17:35Z</time>
      </trkpt>
      <trkpt lat="44.6616" lon="5.63972">
        <ele>1207</ele>
        <time>2021-07-26T07:19:15Z</time>
      </trkpt>
      <trkpt lat="44.66233" lon="5.63933">
        <ele>1201</ele>
        <time>2021-07-26T07:20:18Z</time>
      </trkpt>
      <trkpt lat="44.66233" lon="5.63985">
        <ele>1211</ele>
        <time>2021-07-26T07:20:48Z</time>
      </trkpt>
      <trkpt lat="44.66349" lon="5.63942">
        <ele>1216</ele>
        <time>2021-07-26T07:22:24Z</time>
      </trkpt>
      <trkpt lat="44.66401" lon="5.63968">
        <ele>1222</ele>
        <time>2021-07-26T07:23:08Z</time>
      </trkpt>
      <trkpt lat="44.66444" lon="5.64096">
        <ele>1253</ele>
        <time>2021-07-26T07:24:28Z</time>
      </trkpt>
      <trkpt lat="44.66523" lon="5.64011">
        <ele>1253</ele>
        <time>2021-07-26T07:25:48Z</time>
      </trkpt>
      <trkpt lat="44.66453" lon="5.64174">
        <ele>1272</ele>
        <time>2021-07-26T07:27:36Z</time>
      </trkpt>
      <trkpt lat="44.66398" lon="5.64139">
        <ele>1265</ele>
        <time>2021-07-26T07:28:25Z</time>
      </trkpt>
      <trkpt lat="44.66255" lon="5.64294">
        <ele>1295</ele>
        <time>2021-07-26T07:30:49Z</time>
      </trkpt>
      <trkpt lat="44.66368" lon="5.6426">
        <ele>1303</ele>
        <time>2021-07-26T07:32:22Z</time>
      </trkpt>
      <trkpt lat="44.66456" lon="5.64345">
        <ele>1327</ele>
        <time>2021-07-26T07:33:47Z</time>
      </trkpt>
      <trkpt lat="44.66667" lon="5.64538">
        <ele>1359</ele>
        <time>2021-07-26T07:37:09Z</time>
      </trkpt>
      <trkpt lat="44.66716" lon="5.64599">
        <ele>1377</ele>
        <time>2021-07-26T07:38:01Z</time>
      </trkpt>
      <trkpt lat="44.66835" lon="5.64526">
        <ele>1386</ele>
        <time>2021-07-26T07:39:45Z</time>
      </trkpt>
      <trkpt lat="44.66871" lon="5.64491">
        <ele>1398</ele>
        <time>2021-07-26T07:40:20Z</time>
      </trkpt>
      <trkpt lat="44.66853" lon="5.64397">
        <ele>1393</ele>
        <time>2021-07-26T07:41:16Z</time>
      </trkpt>
      <trkpt lat="44.66908" lon="5.64238">
        <ele>1413</ele>
        <time>2021-07-26T07:42:56Z</time>
      </trkpt>
      <trkpt lat="44.67015" lon="5.64118">
        <ele>1421</ele>
        <time>2021-07-26T07:44:46Z</time>
      </trkpt>
      <trkpt lat="44.67027" lon="5.64221">
        <ele>1431</ele>
        <time>2021-07-26T07:45:45Z</time>
      </trkpt>
      <trkpt lat="44.67009" lon="5.64521">
        <ele>1446</ele>
        <time>2021-07-26T07:48:37Z</time>
      </trkpt>
      <trkpt lat="44.67009" lon="5.64594">
        <ele>1460</ele>
        <time>2021-07-26T07:49:18Z</time>
      </trkpt>
      <trkpt lat="44.66975" lon="5.6474">
        <ele>1479</ele>
        <time>2021-07-26T07:50:46Z</time>
      </trkpt>
      <trkpt lat="44.66987" lon="5.64882">
        <ele>1493</ele>
        <time>2021-07-26T07:52:07Z</time>
      </trkpt>
      <trkpt lat="44.66877" lon="5.65307">
        <ele>1453</ele>
        <time>2021-07-26T07:56:25Z</time>
      </trkpt>
      <trkpt lat="44.66823" lon="5.6559">
        <ele>1395</ele>
        <time>2021-07-26T07:59:12Z</time>
      </trkpt>
      <trkpt lat="44.66707" lon="5.65663">
        <ele>1394</ele>
        <time>2021-07-26T08:00:54Z</time>
      </trkpt>
      <trkpt lat="44.66704" lon="5.65822">
        <ele>1377</ele>
        <time>2021-07-26T08:02:24Z</time>
      </trkpt>
      <trkpt lat="44.66523" lon="5.66032">
        <ele>1362</ele>
        <time>2021-07-26T08:05:32Z</time>
      </trkpt>
      <trkpt lat="44.66603" lon="5.66174">
        <ele>1357</ele>
        <time>2021-07-26T08:07:15Z</time>
      </trkpt>
      <trkpt lat="44.66624" lon="5.66317">
        <ele>1365</ele>
        <time>2021-07-26T08:08:38Z</time>
      </trkpt>
      <trkpt lat="44.66546" lon="5.66539">
        <ele>1389</ele>
        <time>2021-07-26T08:10:59Z</time>
      </trkpt>
      <trkpt lat="44.6645" lon="5.66796">
        <ele>1402</ele>
        <time>2021-07-26T08:13:45Z</time>
      </trkpt>
      <trkpt lat="44.66399" lon="5.66865">
        <ele>1392</ele>
        <time>2021-07-26T08:14:41Z</time>
      </trkpt>
      <trkpt lat="44.66323" lon="5.66954">
        <ele>1374</ele>
        <time>2021-07-26T08:16:00Z</time>
      </trkpt>
      <trkpt lat="44.66299" lon="5.67023">
        <ele>1357</ele>
        <time>2021-07-26T08:16:44Z</time>
      </trkpt>
      <trkpt lat="44.66303" lon="5.67146">
        <ele>1324</ele>
        <time>2021-07-26T08:17:54Z</time>
      </trkpt>
      <trkpt lat="44.66364" lon="5.67215">
        <ele>1303</ele>
        <time>2021-07-26T08:18:57Z</time>
      </trkpt>
      <trkpt lat="44.66431" lon="5.6724">
        <ele>1306</ele>
        <time>2021-07-26T08:19:53Z</time>
      </trkpt>
      <trkpt lat="44.66399" lon="5.67294">
        <ele>1298</ele>
        <time>2021-07-26T08:20:33Z</time>
      </trkpt>
      <trkpt lat="44.66406" lon="5.67396">
        <ele>1284</ele>
        <time>2021-07-26T08:21:31Z</time>
      </trkpt>
      <trkpt lat="44.66455" lon="5.67536">
        <ele>1265</ele>
        <time>2021-07-26T08:23:00Z</time>
      </trkpt>
      <trkpt lat="44.66508" lon="5.67631">
        <ele>1250</ele>
        <time>2021-07-26T08:24:09Z</time>
      </trkpt>
      <trkpt lat="44.66551" lon="5.67751">
        <ele>1233</ele>
        <time>2021-07-26T08:25:25Z</time>
      </trkpt>
      <trkpt lat="44.66686" lon="5.67843">
        <ele>1245</ele>
        <time>2021-07-26T08:27:25Z</time>
      </trkpt>
      <trkpt lat="44.66584" lon="5.68008">
        <ele>1227</ele>
        <time>2021-07-26T08:29:30Z</time>
      </trkpt>
      <trkpt lat="44.66524" lon="5.68016">
        <ele>1220</ele>
        <time>2021-07-26T08:30:18Z</time>
      </trkpt>
      <trkpt lat="44.6647" lon="5.68054">
        <ele>1222</ele>
        <time>2021-07-26T08:31:06Z</time>
      </trkpt>
      <trkpt lat="44.66441" lon="5.68192">
        <ele>1237</ele>
        <time>2021-07-26T08:32:28Z</time>
      </trkpt>
      <trkpt lat="44.66402" lon="5.68327">
        <ele>1240</ele>
        <time>2021-07-26T08:33:51Z</time>
      </trkpt>
      <trkpt lat="44.66328" lon="5.6844">
        <ele>1238</ele>
        <time>2021-07-26T08:35:19Z</time>
      </trkpt>
      <trkpt lat="44.66352" lon="5.6856">
        <ele>1246</ele>
        <time>2021-07-26T08:36:30Z</time>
      </trkpt>
      <trkpt lat="44.66344" lon="5.68628">
        <ele>1233</ele>
        <time>2021-07-26T08:37:09Z</time>
      </trkpt>
      <trkpt lat="44.66353" lon="5.68677">
        <ele>1224</ele>
        <time>2021-07-26T08:37:38Z</time>
      </trkpt>
      <trkpt lat="44.66424" lon="5.68692">
        <ele>1250</ele>
        <time>2021-07-26T08:38:35Z</time>
      </trkpt>
      <trkpt lat="44.6648" lon="5.68769">
        <ele>1242</ele>
        <time>2021-07-26T08:39:38Z</time>
      </trkpt>
      <trkpt lat="44.66466" lon="5.68817">
        <ele>1223</ele>
        <time>2021-07-26T08:40:07Z</time>
      </trkpt>
      <trkpt lat="44.66442" lon="5.68805">
        <ele>1215</ele>
        <time>2021-07-26T08:40:28Z</time>
      </trkpt>
      <trkpt lat="44.66421" lon="5.68858">
        <ele>1203</ele>
        <time>2021-07-26T08:41:02Z</time>
      </trkpt>
      <trkpt lat="44.66185" lon="5.68978">
        <ele>1131</ele>
        <time>2021-07-26T08:44:23Z</time>
      </trkpt>
      <trkpt lat="44.66335" lon="5.69075">
        <ele>1132</ele>
        <time>2021-07-26T08:46:36Z</time>
      </trkpt>
      <trkpt lat="44.66397" lon="5.69093">
        <ele>1134</ele>
        <time>2021-07-26T08:47:26Z</time>
      </trkpt>
      <trkpt lat="44.66421" lon="5.69182">
        <ele>1108</ele>
        <time>2021-07-26T08:48:20Z</time>
      </trkpt>
      <trkpt lat="44.66453" lon="5.69228">
        <ele>1097</ele>
        <time>2021-07-26T08:48:57Z</time>
      </trkpt>
      <trkpt lat="44.66675" lon="5.69208">
        <ele>1084</ele>
        <time>2021-07-26T08:51:55Z</time>
      </trkpt>
      <trkpt lat="44.66793" lon="5.6918">
        <ele>1098</ele>
        <time>2021-07-26T08:53:31Z</time>
      </trkpt>
      <trkpt lat="44.66952" lon="5.6918">
        <ele>1099</ele>
        <time>2021-07-26T08:55:38Z</time>
      </trkpt>
      <trkpt lat="44.67032" lon="5.69175">
        <ele>1103</ele>
        <time>2021-07-26T08:56:42Z</time>
      </trkpt>
      <trkpt lat="44.67179" lon="5.69157">
        <ele>1114</ele>
        <time>2021-07-26T08:58:41Z</time>
      </trkpt>
      <trkpt lat="44.67301" lon="5.69118">
        <ele>1130</ele>
        <time>2021-07-26T09:00:21Z</time>
      </trkpt>
      <trkpt lat="44.67489" lon="5.69152">
        <ele>1124</ele>
        <time>2021-07-26T09:02:53Z</time>
      </trkpt>
      <trkpt lat="44.67627" lon="5.69129">
        <ele>1118</ele>
        <time>2021-07-26T09:04:44Z</time>
      </trkpt>
      <trkpt lat="44.67771" lon="5.69055">
        <ele>1110</ele>
        <time>2021-07-26T09:06:47Z</time>
      </trkpt>
      <trkpt lat="44.67872" lon="5.68958">
        <ele>1111</ele>
        <time>2021-07-26T09:08:24Z</time>
      </trkpt>
      <trkpt lat="44.67998" lon="5.68909">
        <ele>1082</ele>
        <time>2021-07-26T09:10:09Z</time>
      </trkpt>
      <trkpt lat="44.68017" lon="5.68996">
        <ele>1067</ele>
        <time>2021-07-26T09:11:01Z</time>
      </trkpt>
      <trkpt lat="44.67963" lon="5.69024">
        <ele>1069</ele>
        <time>2021-07-26T09:11:47Z</time>
      </trkpt>
      <trkpt lat="44.67872" lon="5.69266">
        <ele>1047</ele>
        <time>2021-07-26T09:14:23Z</time>
      </trkpt>
      <trkpt lat="44.6797" lon="5.69249">
        <ele>1038</ele>
        <time>2021-07-26T09:15:42Z</time>
      </trkpt>
      <trkpt lat="44.67981" lon="5.69353">
        <ele>1027</ele>
        <time>2021-07-26T09:16:42Z</time>
      </trkpt>
      <trkpt lat="44.67965" lon="5.69499">
        <ele>1020</ele>
        <time>2021-07-26T09:18:06Z</time>
      </trkpt>
      <trkpt lat="44.67988" lon="5.69547">
        <ele>1019</ele>
        <time>2021-07-26T09:18:39Z</time>
      </trkpt>
    </trkseg>
  </trk>
</gpx>